<?xml version="1.0" encoding="UTF-8" standalone="no" ?>
<gpx xmlns="http://www.topografix.com/GPX/1/1" xmlns:xsi="http://www.w3.org/2001/XMLSchema-instance" xsi:schemaLocation="http://www.topografix.com/GPX/1/1 http://www.topografix.com/GPX/1/1/gpx.xsd" version="1.1" creator="VisuGPX - https://www.visugpx.com">
  <metadata>
    <name>Randonnée VTT de Nesle (80)</name>
    <desc><![CDATA[Randonnée Vtt de Nesle (80) 26km,
le dimanche 20 mai 2012]]></desc>
  </metadata>
  <trk>
    <name><![CDATA[Randonnée VTT de Nesle (80)_1]]></name>
    <trkseg>
      <trkpt lat="49.75805" lon="2.91146">
        <ele>81</ele>
        <time>2012-05-20 06:55:20 +0000</time>
      </trkpt>
      <trkpt lat="49.75804" lon="2.91147">
        <ele>80</ele>
        <time>2012-05-20 06:55:26 +0000</time>
      </trkpt>
      <trkpt lat="49.75795" lon="2.91161">
        <ele>80</ele>
        <time>2012-05-20 06:55:32 +0000</time>
      </trkpt>
      <trkpt lat="49.75781" lon="2.91184">
        <ele>73</ele>
        <time>2012-05-20 06:55:38 +0000</time>
      </trkpt>
      <trkpt lat="49.75769" lon="2.91206">
        <ele>68</ele>
        <time>2012-05-20 06:55:44 +0000</time>
      </trkpt>
      <trkpt lat="49.75754" lon="2.91225">
        <ele>71</ele>
        <time>2012-05-20 06:55:50 +0000</time>
      </trkpt>
      <trkpt lat="49.7574" lon="2.91245">
        <ele>72</ele>
        <time>2012-05-20 06:55:56 +0000</time>
      </trkpt>
      <trkpt lat="49.75721" lon="2.91259">
        <ele>72</ele>
        <time>2012-05-20 06:56:02 +0000</time>
      </trkpt>
      <trkpt lat="49.75706" lon="2.91281">
        <ele>73</ele>
        <time>2012-05-20 06:56:08 +0000</time>
      </trkpt>
      <trkpt lat="49.75709" lon="2.91314">
        <ele>75</ele>
        <time>2012-05-20 06:56:14 +0000</time>
      </trkpt>
      <trkpt lat="49.75705" lon="2.91328">
        <ele>74</ele>
        <time>2012-05-20 06:56:20 +0000</time>
      </trkpt>
      <trkpt lat="49.75674" lon="2.91329">
        <ele>72</ele>
        <time>2012-05-20 06:56:26 +0000</time>
      </trkpt>
      <trkpt lat="49.75643" lon="2.91328">
        <ele>69</ele>
        <time>2012-05-20 06:56:32 +0000</time>
      </trkpt>
      <trkpt lat="49.75624" lon="2.91338">
        <ele>69</ele>
        <time>2012-05-20 06:56:38 +0000</time>
      </trkpt>
      <trkpt lat="49.75606" lon="2.91374">
        <ele>78</ele>
        <time>2012-05-20 06:56:44 +0000</time>
      </trkpt>
      <trkpt lat="49.75586" lon="2.91409">
        <ele>79</ele>
        <time>2012-05-20 06:56:50 +0000</time>
      </trkpt>
      <trkpt lat="49.75555" lon="2.91427">
        <ele>77</ele>
        <time>2012-05-20 06:56:56 +0000</time>
      </trkpt>
      <trkpt lat="49.75522" lon="2.91436">
        <ele>77</ele>
        <time>2012-05-20 06:57:02 +0000</time>
      </trkpt>
      <trkpt lat="49.75485" lon="2.91447">
        <ele>78</ele>
        <time>2012-05-20 06:57:08 +0000</time>
      </trkpt>
      <trkpt lat="49.75455" lon="2.91455">
        <ele>74</ele>
        <time>2012-05-20 06:57:13 +0000</time>
      </trkpt>
      <trkpt lat="49.75418" lon="2.91463">
        <ele>71</ele>
        <time>2012-05-20 06:57:19 +0000</time>
      </trkpt>
      <trkpt lat="49.75389" lon="2.91471">
        <ele>76</ele>
        <time>2012-05-20 06:57:24 +0000</time>
      </trkpt>
      <trkpt lat="49.75367" lon="2.91479">
        <ele>68</ele>
        <time>2012-05-20 06:57:29 +0000</time>
      </trkpt>
      <trkpt lat="49.75351" lon="2.91485">
        <ele>58</ele>
        <time>2012-05-20 06:57:35 +0000</time>
      </trkpt>
      <trkpt lat="49.75351" lon="2.91485">
        <ele>58</ele>
        <time>2012-05-20 06:57:41 +0000</time>
      </trkpt>
      <trkpt lat="49.75335" lon="2.9148">
        <ele>64</ele>
        <time>2012-05-20 06:57:47 +0000</time>
      </trkpt>
      <trkpt lat="49.75313" lon="2.91473">
        <ele>60</ele>
        <time>2012-05-20 06:57:53 +0000</time>
      </trkpt>
      <trkpt lat="49.7529" lon="2.91465">
        <ele>50</ele>
        <time>2012-05-20 06:57:59 +0000</time>
      </trkpt>
      <trkpt lat="49.75262" lon="2.9146">
        <ele>51</ele>
        <time>2012-05-20 06:58:05 +0000</time>
      </trkpt>
      <trkpt lat="49.75248" lon="2.91425">
        <ele>51</ele>
        <time>2012-05-20 06:58:11 +0000</time>
      </trkpt>
      <trkpt lat="49.75233" lon="2.91404">
        <ele>56</ele>
        <time>2012-05-20 06:58:17 +0000</time>
      </trkpt>
      <trkpt lat="49.75208" lon="2.91426">
        <ele>58</ele>
        <time>2012-05-20 06:58:23 +0000</time>
      </trkpt>
      <trkpt lat="49.75173" lon="2.91438">
        <ele>58</ele>
        <time>2012-05-20 06:58:29 +0000</time>
      </trkpt>
      <trkpt lat="49.7513" lon="2.91442">
        <ele>53</ele>
        <time>2012-05-20 06:58:35 +0000</time>
      </trkpt>
      <trkpt lat="49.75086" lon="2.91438">
        <ele>49</ele>
        <time>2012-05-20 06:58:41 +0000</time>
      </trkpt>
      <trkpt lat="49.75043" lon="2.91429">
        <ele>51</ele>
        <time>2012-05-20 06:58:47 +0000</time>
      </trkpt>
      <trkpt lat="49.75006" lon="2.91422">
        <ele>50</ele>
        <time>2012-05-20 06:58:53 +0000</time>
      </trkpt>
      <trkpt lat="49.75" lon="2.91401">
        <ele>52</ele>
        <time>2012-05-20 06:58:59 +0000</time>
      </trkpt>
      <trkpt lat="49.75011" lon="2.91357">
        <ele>54</ele>
        <time>2012-05-20 06:59:05 +0000</time>
      </trkpt>
      <trkpt lat="49.75029" lon="2.9131">
        <ele>53</ele>
        <time>2012-05-20 06:59:11 +0000</time>
      </trkpt>
      <trkpt lat="49.7504" lon="2.91257">
        <ele>52</ele>
        <time>2012-05-20 06:59:17 +0000</time>
      </trkpt>
      <trkpt lat="49.75049" lon="2.91201">
        <ele>54</ele>
        <time>2012-05-20 06:59:23 +0000</time>
      </trkpt>
      <trkpt lat="49.75055" lon="2.91153">
        <ele>49</ele>
        <time>2012-05-20 06:59:29 +0000</time>
      </trkpt>
      <trkpt lat="49.75063" lon="2.91105">
        <ele>52</ele>
        <time>2012-05-20 06:59:35 +0000</time>
      </trkpt>
      <trkpt lat="49.75062" lon="2.91061">
        <ele>54</ele>
        <time>2012-05-20 06:59:41 +0000</time>
      </trkpt>
      <trkpt lat="49.75071" lon="2.91023">
        <ele>53</ele>
        <time>2012-05-20 06:59:47 +0000</time>
      </trkpt>
      <trkpt lat="49.75095" lon="2.90987">
        <ele>55</ele>
        <time>2012-05-20 06:59:53 +0000</time>
      </trkpt>
      <trkpt lat="49.75114" lon="2.90957">
        <ele>55</ele>
        <time>2012-05-20 06:59:58 +0000</time>
      </trkpt>
      <trkpt lat="49.75138" lon="2.90918">
        <ele>52</ele>
        <time>2012-05-20 07:00:04 +0000</time>
      </trkpt>
      <trkpt lat="49.75156" lon="2.90892">
        <ele>55</ele>
        <time>2012-05-20 07:00:09 +0000</time>
      </trkpt>
      <trkpt lat="49.75174" lon="2.9086">
        <ele>53</ele>
        <time>2012-05-20 07:00:14 +0000</time>
      </trkpt>
      <trkpt lat="49.75196" lon="2.90821">
        <ele>53</ele>
        <time>2012-05-20 07:00:20 +0000</time>
      </trkpt>
      <trkpt lat="49.75218" lon="2.9079">
        <ele>55</ele>
        <time>2012-05-20 07:00:26 +0000</time>
      </trkpt>
      <trkpt lat="49.75242" lon="2.90767">
        <ele>55</ele>
        <time>2012-05-20 07:00:32 +0000</time>
      </trkpt>
      <trkpt lat="49.75262" lon="2.90747">
        <ele>54</ele>
        <time>2012-05-20 07:00:37 +0000</time>
      </trkpt>
      <trkpt lat="49.75282" lon="2.9071">
        <ele>53</ele>
        <time>2012-05-20 07:00:43 +0000</time>
      </trkpt>
      <trkpt lat="49.753" lon="2.90678">
        <ele>57</ele>
        <time>2012-05-20 07:00:49 +0000</time>
      </trkpt>
      <trkpt lat="49.75312" lon="2.90649">
        <ele>55</ele>
        <time>2012-05-20 07:00:54 +0000</time>
      </trkpt>
      <trkpt lat="49.75323" lon="2.90625">
        <ele>55</ele>
        <time>2012-05-20 07:00:59 +0000</time>
      </trkpt>
      <trkpt lat="49.75341" lon="2.90592">
        <ele>57</ele>
        <time>2012-05-20 07:01:05 +0000</time>
      </trkpt>
      <trkpt lat="49.75359" lon="2.90554">
        <ele>57</ele>
        <time>2012-05-20 07:01:11 +0000</time>
      </trkpt>
      <trkpt lat="49.75373" lon="2.90511">
        <ele>53</ele>
        <time>2012-05-20 07:01:17 +0000</time>
      </trkpt>
      <trkpt lat="49.75376" lon="2.90472">
        <ele>54</ele>
        <time>2012-05-20 07:01:22 +0000</time>
      </trkpt>
      <trkpt lat="49.75378" lon="2.90423">
        <ele>56</ele>
        <time>2012-05-20 07:01:28 +0000</time>
      </trkpt>
      <trkpt lat="49.7538" lon="2.90377">
        <ele>59</ele>
        <time>2012-05-20 07:01:33 +0000</time>
      </trkpt>
      <trkpt lat="49.75381" lon="2.90339">
        <ele>60</ele>
        <time>2012-05-20 07:01:38 +0000</time>
      </trkpt>
      <trkpt lat="49.75382" lon="2.90292">
        <ele>56</ele>
        <time>2012-05-20 07:01:44 +0000</time>
      </trkpt>
      <trkpt lat="49.75378" lon="2.90247">
        <ele>61</ele>
        <time>2012-05-20 07:01:50 +0000</time>
      </trkpt>
      <trkpt lat="49.75361" lon="2.90209">
        <ele>58</ele>
        <time>2012-05-20 07:01:56 +0000</time>
      </trkpt>
      <trkpt lat="49.75343" lon="2.90186">
        <ele>58</ele>
        <time>2012-05-20 07:02:02 +0000</time>
      </trkpt>
      <trkpt lat="49.7533" lon="2.9015">
        <ele>65</ele>
        <time>2012-05-20 07:02:08 +0000</time>
      </trkpt>
      <trkpt lat="49.75312" lon="2.90111">
        <ele>64</ele>
        <time>2012-05-20 07:02:14 +0000</time>
      </trkpt>
      <trkpt lat="49.75301" lon="2.90076">
        <ele>60</ele>
        <time>2012-05-20 07:02:20 +0000</time>
      </trkpt>
      <trkpt lat="49.75299" lon="2.90047">
        <ele>55</ele>
        <time>2012-05-20 07:02:26 +0000</time>
      </trkpt>
      <trkpt lat="49.75294" lon="2.90019">
        <ele>59</ele>
        <time>2012-05-20 07:02:31 +0000</time>
      </trkpt>
      <trkpt lat="49.75281" lon="2.89986">
        <ele>64</ele>
        <time>2012-05-20 07:02:37 +0000</time>
      </trkpt>
      <trkpt lat="49.75262" lon="2.89959">
        <ele>66</ele>
        <time>2012-05-20 07:02:42 +0000</time>
      </trkpt>
      <trkpt lat="49.7524" lon="2.89927">
        <ele>67</ele>
        <time>2012-05-20 07:02:48 +0000</time>
      </trkpt>
      <trkpt lat="49.75221" lon="2.89899">
        <ele>68</ele>
        <time>2012-05-20 07:02:53 +0000</time>
      </trkpt>
      <trkpt lat="49.75196" lon="2.89872">
        <ele>60</ele>
        <time>2012-05-20 07:02:59 +0000</time>
      </trkpt>
      <trkpt lat="49.75161" lon="2.89841">
        <ele>64</ele>
        <time>2012-05-20 07:03:05 +0000</time>
      </trkpt>
      <trkpt lat="49.75129" lon="2.8981">
        <ele>66</ele>
        <time>2012-05-20 07:03:11 +0000</time>
      </trkpt>
      <trkpt lat="49.75097" lon="2.89783">
        <ele>65</ele>
        <time>2012-05-20 07:03:17 +0000</time>
      </trkpt>
      <trkpt lat="49.75071" lon="2.89766">
        <ele>62</ele>
        <time>2012-05-20 07:03:22 +0000</time>
      </trkpt>
      <trkpt lat="49.75047" lon="2.89747">
        <ele>62</ele>
        <time>2012-05-20 07:03:28 +0000</time>
      </trkpt>
      <trkpt lat="49.75027" lon="2.89732">
        <ele>60</ele>
        <time>2012-05-20 07:03:33 +0000</time>
      </trkpt>
      <trkpt lat="49.75003" lon="2.8971">
        <ele>57</ele>
        <time>2012-05-20 07:03:39 +0000</time>
      </trkpt>
      <trkpt lat="49.74989" lon="2.89694">
        <ele>59</ele>
        <time>2012-05-20 07:03:44 +0000</time>
      </trkpt>
      <trkpt lat="49.74971" lon="2.89675">
        <ele>61</ele>
        <time>2012-05-20 07:03:50 +0000</time>
      </trkpt>
      <trkpt lat="49.74949" lon="2.89654">
        <ele>60</ele>
        <time>2012-05-20 07:03:56 +0000</time>
      </trkpt>
      <trkpt lat="49.74926" lon="2.89633">
        <ele>61</ele>
        <time>2012-05-20 07:04:02 +0000</time>
      </trkpt>
      <trkpt lat="49.749" lon="2.89614">
        <ele>53</ele>
        <time>2012-05-20 07:04:08 +0000</time>
      </trkpt>
      <trkpt lat="49.74874" lon="2.89595">
        <ele>57</ele>
        <time>2012-05-20 07:04:14 +0000</time>
      </trkpt>
      <trkpt lat="49.7485" lon="2.89578">
        <ele>61</ele>
        <time>2012-05-20 07:04:20 +0000</time>
      </trkpt>
      <trkpt lat="49.74827" lon="2.89562">
        <ele>62</ele>
        <time>2012-05-20 07:04:26 +0000</time>
      </trkpt>
      <trkpt lat="49.74807" lon="2.89548">
        <ele>64</ele>
        <time>2012-05-20 07:04:32 +0000</time>
      </trkpt>
      <trkpt lat="49.74792" lon="2.89537">
        <ele>62</ele>
        <time>2012-05-20 07:04:37 +0000</time>
      </trkpt>
      <trkpt lat="49.74767" lon="2.89522">
        <ele>61</ele>
        <time>2012-05-20 07:04:43 +0000</time>
      </trkpt>
      <trkpt lat="49.74741" lon="2.89507">
        <ele>66</ele>
        <time>2012-05-20 07:04:49 +0000</time>
      </trkpt>
      <trkpt lat="49.74723" lon="2.89493">
        <ele>67</ele>
        <time>2012-05-20 07:04:54 +0000</time>
      </trkpt>
      <trkpt lat="49.74705" lon="2.89479">
        <ele>66</ele>
        <time>2012-05-20 07:04:59 +0000</time>
      </trkpt>
      <trkpt lat="49.74683" lon="2.89459">
        <ele>66</ele>
        <time>2012-05-20 07:05:05 +0000</time>
      </trkpt>
      <trkpt lat="49.74661" lon="2.89436">
        <ele>67</ele>
        <time>2012-05-20 07:05:11 +0000</time>
      </trkpt>
      <trkpt lat="49.74644" lon="2.89417">
        <ele>67</ele>
        <time>2012-05-20 07:05:16 +0000</time>
      </trkpt>
      <trkpt lat="49.74621" lon="2.89395">
        <ele>67</ele>
        <time>2012-05-20 07:05:22 +0000</time>
      </trkpt>
      <trkpt lat="49.74591" lon="2.89367">
        <ele>66</ele>
        <time>2012-05-20 07:05:28 +0000</time>
      </trkpt>
      <trkpt lat="49.74571" lon="2.89345">
        <ele>63</ele>
        <time>2012-05-20 07:05:33 +0000</time>
      </trkpt>
      <trkpt lat="49.74546" lon="2.89319">
        <ele>62</ele>
        <time>2012-05-20 07:05:39 +0000</time>
      </trkpt>
      <trkpt lat="49.74529" lon="2.89302">
        <ele>66</ele>
        <time>2012-05-20 07:05:44 +0000</time>
      </trkpt>
      <trkpt lat="49.74507" lon="2.89281">
        <ele>64</ele>
        <time>2012-05-20 07:05:50 +0000</time>
      </trkpt>
      <trkpt lat="49.74485" lon="2.8926">
        <ele>69</ele>
        <time>2012-05-20 07:05:56 +0000</time>
      </trkpt>
      <trkpt lat="49.74463" lon="2.89239">
        <ele>68</ele>
        <time>2012-05-20 07:06:02 +0000</time>
      </trkpt>
      <trkpt lat="49.74443" lon="2.89218">
        <ele>70</ele>
        <time>2012-05-20 07:06:08 +0000</time>
      </trkpt>
      <trkpt lat="49.74421" lon="2.89196">
        <ele>72</ele>
        <time>2012-05-20 07:06:14 +0000</time>
      </trkpt>
      <trkpt lat="49.744" lon="2.89175">
        <ele>67</ele>
        <time>2012-05-20 07:06:19 +0000</time>
      </trkpt>
      <trkpt lat="49.74372" lon="2.89147">
        <ele>72</ele>
        <time>2012-05-20 07:06:25 +0000</time>
      </trkpt>
      <trkpt lat="49.7435" lon="2.89126">
        <ele>68</ele>
        <time>2012-05-20 07:06:30 +0000</time>
      </trkpt>
      <trkpt lat="49.74324" lon="2.89098">
        <ele>66</ele>
        <time>2012-05-20 07:06:36 +0000</time>
      </trkpt>
      <trkpt lat="49.74301" lon="2.89069">
        <ele>63</ele>
        <time>2012-05-20 07:06:42 +0000</time>
      </trkpt>
      <trkpt lat="49.74281" lon="2.89038">
        <ele>66</ele>
        <time>2012-05-20 07:06:47 +0000</time>
      </trkpt>
      <trkpt lat="49.74256" lon="2.89002">
        <ele>67</ele>
        <time>2012-05-20 07:06:53 +0000</time>
      </trkpt>
      <trkpt lat="49.74232" lon="2.88968">
        <ele>66</ele>
        <time>2012-05-20 07:06:59 +0000</time>
      </trkpt>
      <trkpt lat="49.74209" lon="2.88935">
        <ele>70</ele>
        <time>2012-05-20 07:07:05 +0000</time>
      </trkpt>
      <trkpt lat="49.74188" lon="2.88909">
        <ele>74</ele>
        <time>2012-05-20 07:07:10 +0000</time>
      </trkpt>
      <trkpt lat="49.74165" lon="2.88874">
        <ele>71</ele>
        <time>2012-05-20 07:07:16 +0000</time>
      </trkpt>
      <trkpt lat="49.74152" lon="2.88859">
        <ele>68</ele>
        <time>2012-05-20 07:07:22 +0000</time>
      </trkpt>
      <trkpt lat="49.74135" lon="2.88851">
        <ele>73</ele>
        <time>2012-05-20 07:07:28 +0000</time>
      </trkpt>
      <trkpt lat="49.7412" lon="2.88835">
        <ele>73</ele>
        <time>2012-05-20 07:07:33 +0000</time>
      </trkpt>
      <trkpt lat="49.74102" lon="2.88814">
        <ele>75</ele>
        <time>2012-05-20 07:07:38 +0000</time>
      </trkpt>
      <trkpt lat="49.74081" lon="2.88783">
        <ele>76</ele>
        <time>2012-05-20 07:07:44 +0000</time>
      </trkpt>
      <trkpt lat="49.74059" lon="2.88755">
        <ele>74</ele>
        <time>2012-05-20 07:07:50 +0000</time>
      </trkpt>
      <trkpt lat="49.74038" lon="2.88727">
        <ele>72</ele>
        <time>2012-05-20 07:07:56 +0000</time>
      </trkpt>
      <trkpt lat="49.74022" lon="2.88703">
        <ele>69</ele>
        <time>2012-05-20 07:08:01 +0000</time>
      </trkpt>
      <trkpt lat="49.74" lon="2.88673">
        <ele>78</ele>
        <time>2012-05-20 07:08:07 +0000</time>
      </trkpt>
      <trkpt lat="49.7398" lon="2.88648">
        <ele>81</ele>
        <time>2012-05-20 07:08:13 +0000</time>
      </trkpt>
      <trkpt lat="49.73961" lon="2.88625">
        <ele>78</ele>
        <time>2012-05-20 07:08:18 +0000</time>
      </trkpt>
      <trkpt lat="49.73941" lon="2.88599">
        <ele>78</ele>
        <time>2012-05-20 07:08:23 +0000</time>
      </trkpt>
      <trkpt lat="49.73918" lon="2.8857">
        <ele>75</ele>
        <time>2012-05-20 07:08:29 +0000</time>
      </trkpt>
      <trkpt lat="49.73895" lon="2.8854">
        <ele>73</ele>
        <time>2012-05-20 07:08:35 +0000</time>
      </trkpt>
      <trkpt lat="49.7387" lon="2.88505">
        <ele>73</ele>
        <time>2012-05-20 07:08:41 +0000</time>
      </trkpt>
      <trkpt lat="49.73851" lon="2.88473">
        <ele>72</ele>
        <time>2012-05-20 07:08:47 +0000</time>
      </trkpt>
      <trkpt lat="49.73836" lon="2.88443">
        <ele>74</ele>
        <time>2012-05-20 07:08:53 +0000</time>
      </trkpt>
      <trkpt lat="49.73822" lon="2.88419">
        <ele>75</ele>
        <time>2012-05-20 07:08:59 +0000</time>
      </trkpt>
      <trkpt lat="49.7381" lon="2.88392">
        <ele>77</ele>
        <time>2012-05-20 07:09:05 +0000</time>
      </trkpt>
      <trkpt lat="49.73795" lon="2.88366">
        <ele>77</ele>
        <time>2012-05-20 07:09:11 +0000</time>
      </trkpt>
      <trkpt lat="49.7378" lon="2.88338">
        <ele>78</ele>
        <time>2012-05-20 07:09:17 +0000</time>
      </trkpt>
      <trkpt lat="49.73765" lon="2.88306">
        <ele>75</ele>
        <time>2012-05-20 07:09:23 +0000</time>
      </trkpt>
      <trkpt lat="49.73751" lon="2.88282">
        <ele>79</ele>
        <time>2012-05-20 07:09:29 +0000</time>
      </trkpt>
      <trkpt lat="49.73738" lon="2.88255">
        <ele>80</ele>
        <time>2012-05-20 07:09:35 +0000</time>
      </trkpt>
      <trkpt lat="49.73723" lon="2.88227">
        <ele>78</ele>
        <time>2012-05-20 07:09:41 +0000</time>
      </trkpt>
      <trkpt lat="49.7371" lon="2.88197">
        <ele>75</ele>
        <time>2012-05-20 07:09:47 +0000</time>
      </trkpt>
      <trkpt lat="49.73695" lon="2.88167">
        <ele>76</ele>
        <time>2012-05-20 07:09:53 +0000</time>
      </trkpt>
      <trkpt lat="49.73683" lon="2.88145">
        <ele>78</ele>
        <time>2012-05-20 07:09:59 +0000</time>
      </trkpt>
      <trkpt lat="49.73671" lon="2.88121">
        <ele>82</ele>
        <time>2012-05-20 07:10:05 +0000</time>
      </trkpt>
      <trkpt lat="49.73655" lon="2.88102">
        <ele>84</ele>
        <time>2012-05-20 07:10:11 +0000</time>
      </trkpt>
      <trkpt lat="49.73632" lon="2.88115">
        <ele>83</ele>
        <time>2012-05-20 07:10:17 +0000</time>
      </trkpt>
      <trkpt lat="49.73604" lon="2.88131">
        <ele>79</ele>
        <time>2012-05-20 07:10:23 +0000</time>
      </trkpt>
      <trkpt lat="49.73576" lon="2.8815">
        <ele>81</ele>
        <time>2012-05-20 07:10:29 +0000</time>
      </trkpt>
      <trkpt lat="49.7355" lon="2.88171">
        <ele>87</ele>
        <time>2012-05-20 07:10:35 +0000</time>
      </trkpt>
      <trkpt lat="49.73526" lon="2.88189">
        <ele>85</ele>
        <time>2012-05-20 07:10:40 +0000</time>
      </trkpt>
      <trkpt lat="49.73496" lon="2.88207">
        <ele>79</ele>
        <time>2012-05-20 07:10:46 +0000</time>
      </trkpt>
      <trkpt lat="49.73464" lon="2.8822">
        <ele>81</ele>
        <time>2012-05-20 07:10:52 +0000</time>
      </trkpt>
      <trkpt lat="49.73438" lon="2.88233">
        <ele>82</ele>
        <time>2012-05-20 07:10:57 +0000</time>
      </trkpt>
      <trkpt lat="49.73412" lon="2.88245">
        <ele>80</ele>
        <time>2012-05-20 07:11:02 +0000</time>
      </trkpt>
      <trkpt lat="49.73384" lon="2.88265">
        <ele>82</ele>
        <time>2012-05-20 07:11:08 +0000</time>
      </trkpt>
      <trkpt lat="49.73362" lon="2.88283">
        <ele>81</ele>
        <time>2012-05-20 07:11:14 +0000</time>
      </trkpt>
      <trkpt lat="49.73334" lon="2.88306">
        <ele>79</ele>
        <time>2012-05-20 07:11:20 +0000</time>
      </trkpt>
      <trkpt lat="49.73318" lon="2.88326">
        <ele>84</ele>
        <time>2012-05-20 07:11:26 +0000</time>
      </trkpt>
      <trkpt lat="49.73325" lon="2.88357">
        <ele>85</ele>
        <time>2012-05-20 07:11:32 +0000</time>
      </trkpt>
      <trkpt lat="49.73333" lon="2.88391">
        <ele>84</ele>
        <time>2012-05-20 07:11:37 +0000</time>
      </trkpt>
      <trkpt lat="49.73345" lon="2.88437">
        <ele>82</ele>
        <time>2012-05-20 07:11:43 +0000</time>
      </trkpt>
      <trkpt lat="49.73356" lon="2.88483">
        <ele>80</ele>
        <time>2012-05-20 07:11:49 +0000</time>
      </trkpt>
      <trkpt lat="49.73366" lon="2.88523">
        <ele>82</ele>
        <time>2012-05-20 07:11:54 +0000</time>
      </trkpt>
      <trkpt lat="49.73373" lon="2.88554">
        <ele>83</ele>
        <time>2012-05-20 07:11:59 +0000</time>
      </trkpt>
      <trkpt lat="49.73384" lon="2.88596">
        <ele>83</ele>
        <time>2012-05-20 07:12:05 +0000</time>
      </trkpt>
      <trkpt lat="49.73396" lon="2.88636">
        <ele>83</ele>
        <time>2012-05-20 07:12:11 +0000</time>
      </trkpt>
      <trkpt lat="49.73404" lon="2.88663">
        <ele>87</ele>
        <time>2012-05-20 07:12:16 +0000</time>
      </trkpt>
      <trkpt lat="49.73412" lon="2.88699">
        <ele>85</ele>
        <time>2012-05-20 07:12:22 +0000</time>
      </trkpt>
      <trkpt lat="49.73419" lon="2.88728">
        <ele>87</ele>
        <time>2012-05-20 07:12:27 +0000</time>
      </trkpt>
      <trkpt lat="49.73429" lon="2.88759">
        <ele>85</ele>
        <time>2012-05-20 07:12:32 +0000</time>
      </trkpt>
      <trkpt lat="49.73439" lon="2.88795">
        <ele>84</ele>
        <time>2012-05-20 07:12:38 +0000</time>
      </trkpt>
      <trkpt lat="49.73447" lon="2.88826">
        <ele>87</ele>
        <time>2012-05-20 07:12:44 +0000</time>
      </trkpt>
      <trkpt lat="49.73458" lon="2.88858">
        <ele>87</ele>
        <time>2012-05-20 07:12:50 +0000</time>
      </trkpt>
      <trkpt lat="49.73466" lon="2.88886">
        <ele>88</ele>
        <time>2012-05-20 07:12:55 +0000</time>
      </trkpt>
      <trkpt lat="49.73475" lon="2.8892">
        <ele>86</ele>
        <time>2012-05-20 07:13:01 +0000</time>
      </trkpt>
      <trkpt lat="49.73484" lon="2.88955">
        <ele>87</ele>
        <time>2012-05-20 07:13:07 +0000</time>
      </trkpt>
      <trkpt lat="49.73493" lon="2.8899">
        <ele>87</ele>
        <time>2012-05-20 07:13:12 +0000</time>
      </trkpt>
      <trkpt lat="49.73503" lon="2.89028">
        <ele>85</ele>
        <time>2012-05-20 07:13:17 +0000</time>
      </trkpt>
      <trkpt lat="49.73516" lon="2.89074">
        <ele>86</ele>
        <time>2012-05-20 07:13:23 +0000</time>
      </trkpt>
      <trkpt lat="49.73531" lon="2.8912">
        <ele>82</ele>
        <time>2012-05-20 07:13:29 +0000</time>
      </trkpt>
      <trkpt lat="49.73549" lon="2.89164">
        <ele>84</ele>
        <time>2012-05-20 07:13:35 +0000</time>
      </trkpt>
      <trkpt lat="49.73574" lon="2.89205">
        <ele>83</ele>
        <time>2012-05-20 07:13:41 +0000</time>
      </trkpt>
      <trkpt lat="49.73601" lon="2.89244">
        <ele>85</ele>
        <time>2012-05-20 07:13:47 +0000</time>
      </trkpt>
      <trkpt lat="49.73626" lon="2.89283">
        <ele>82</ele>
        <time>2012-05-20 07:13:53 +0000</time>
      </trkpt>
      <trkpt lat="49.73645" lon="2.89312">
        <ele>79</ele>
        <time>2012-05-20 07:13:58 +0000</time>
      </trkpt>
      <trkpt lat="49.73669" lon="2.89336">
        <ele>82</ele>
        <time>2012-05-20 07:14:04 +0000</time>
      </trkpt>
      <trkpt lat="49.73689" lon="2.89345">
        <ele>80</ele>
        <time>2012-05-20 07:14:09 +0000</time>
      </trkpt>
      <trkpt lat="49.73708" lon="2.89366">
        <ele>82</ele>
        <time>2012-05-20 07:14:15 +0000</time>
      </trkpt>
      <trkpt lat="49.73727" lon="2.89391">
        <ele>79</ele>
        <time>2012-05-20 07:14:20 +0000</time>
      </trkpt>
      <trkpt lat="49.7375" lon="2.89423">
        <ele>77</ele>
        <time>2012-05-20 07:14:26 +0000</time>
      </trkpt>
      <trkpt lat="49.73775" lon="2.89451">
        <ele>74</ele>
        <time>2012-05-20 07:14:32 +0000</time>
      </trkpt>
      <trkpt lat="49.73801" lon="2.89484">
        <ele>80</ele>
        <time>2012-05-20 07:14:38 +0000</time>
      </trkpt>
      <trkpt lat="49.73821" lon="2.89525">
        <ele>77</ele>
        <time>2012-05-20 07:14:44 +0000</time>
      </trkpt>
      <trkpt lat="49.73836" lon="2.8956">
        <ele>76</ele>
        <time>2012-05-20 07:14:49 +0000</time>
      </trkpt>
      <trkpt lat="49.73854" lon="2.89598">
        <ele>76</ele>
        <time>2012-05-20 07:14:55 +0000</time>
      </trkpt>
      <trkpt lat="49.7387" lon="2.89629">
        <ele>78</ele>
        <time>2012-05-20 07:15:00 +0000</time>
      </trkpt>
      <trkpt lat="49.73877" lon="2.89651">
        <ele>76</ele>
        <time>2012-05-20 07:15:05 +0000</time>
      </trkpt>
      <trkpt lat="49.73882" lon="2.89653">
        <ele>76</ele>
        <time>2012-05-20 07:15:11 +0000</time>
      </trkpt>
      <trkpt lat="49.73876" lon="2.89641">
        <ele>79</ele>
        <time>2012-05-20 07:15:17 +0000</time>
      </trkpt>
      <trkpt lat="49.7386" lon="2.89608">
        <ele>81</ele>
        <time>2012-05-20 07:15:23 +0000</time>
      </trkpt>
      <trkpt lat="49.73845" lon="2.89581">
        <ele>84</ele>
        <time>2012-05-20 07:15:28 +0000</time>
      </trkpt>
      <trkpt lat="49.73827" lon="2.89543">
        <ele>82</ele>
        <time>2012-05-20 07:15:34 +0000</time>
      </trkpt>
      <trkpt lat="49.73809" lon="2.89504">
        <ele>82</ele>
        <time>2012-05-20 07:15:40 +0000</time>
      </trkpt>
      <trkpt lat="49.73792" lon="2.89473">
        <ele>84</ele>
        <time>2012-05-20 07:15:45 +0000</time>
      </trkpt>
      <trkpt lat="49.73771" lon="2.89445">
        <ele>86</ele>
        <time>2012-05-20 07:15:50 +0000</time>
      </trkpt>
      <trkpt lat="49.73743" lon="2.89413">
        <ele>83</ele>
        <time>2012-05-20 07:15:56 +0000</time>
      </trkpt>
      <trkpt lat="49.73716" lon="2.89379">
        <ele>83</ele>
        <time>2012-05-20 07:16:02 +0000</time>
      </trkpt>
      <trkpt lat="49.73694" lon="2.89349">
        <ele>84</ele>
        <time>2012-05-20 07:16:08 +0000</time>
      </trkpt>
      <trkpt lat="49.73681" lon="2.89336">
        <ele>86</ele>
        <time>2012-05-20 07:16:14 +0000</time>
      </trkpt>
      <trkpt lat="49.73665" lon="2.89327">
        <ele>80</ele>
        <time>2012-05-20 07:16:20 +0000</time>
      </trkpt>
      <trkpt lat="49.73656" lon="2.89331">
        <ele>83</ele>
        <time>2012-05-20 07:16:26 +0000</time>
      </trkpt>
      <trkpt lat="49.73669" lon="2.89345">
        <ele>85</ele>
        <time>2012-05-20 07:16:32 +0000</time>
      </trkpt>
      <trkpt lat="49.73691" lon="2.89339">
        <ele>83</ele>
        <time>2012-05-20 07:16:38 +0000</time>
      </trkpt>
      <trkpt lat="49.73719" lon="2.89323">
        <ele>80</ele>
        <time>2012-05-20 07:16:44 +0000</time>
      </trkpt>
      <trkpt lat="49.73746" lon="2.89311">
        <ele>85</ele>
        <time>2012-05-20 07:16:50 +0000</time>
      </trkpt>
      <trkpt lat="49.73773" lon="2.89301">
        <ele>85</ele>
        <time>2012-05-20 07:16:56 +0000</time>
      </trkpt>
      <trkpt lat="49.738" lon="2.89297">
        <ele>81</ele>
        <time>2012-05-20 07:17:02 +0000</time>
      </trkpt>
      <trkpt lat="49.73829" lon="2.89296">
        <ele>81</ele>
        <time>2012-05-20 07:17:08 +0000</time>
      </trkpt>
      <trkpt lat="49.73846" lon="2.89293">
        <ele>81</ele>
        <time>2012-05-20 07:17:14 +0000</time>
      </trkpt>
      <trkpt lat="49.73851" lon="2.8929">
        <ele>83</ele>
        <time>2012-05-20 07:17:20 +0000</time>
      </trkpt>
      <trkpt lat="49.73851" lon="2.89289">
        <ele>81</ele>
        <time>2012-05-20 07:17:26 +0000</time>
      </trkpt>
      <trkpt lat="49.73834" lon="2.89291">
        <ele>87</ele>
        <time>2012-05-20 07:17:32 +0000</time>
      </trkpt>
      <trkpt lat="49.73809" lon="2.89297">
        <ele>86</ele>
        <time>2012-05-20 07:17:38 +0000</time>
      </trkpt>
      <trkpt lat="49.73778" lon="2.893">
        <ele>85</ele>
        <time>2012-05-20 07:17:44 +0000</time>
      </trkpt>
      <trkpt lat="49.73748" lon="2.89307">
        <ele>86</ele>
        <time>2012-05-20 07:17:50 +0000</time>
      </trkpt>
      <trkpt lat="49.73719" lon="2.89321">
        <ele>89</ele>
        <time>2012-05-20 07:17:56 +0000</time>
      </trkpt>
      <trkpt lat="49.73691" lon="2.89335">
        <ele>85</ele>
        <time>2012-05-20 07:18:02 +0000</time>
      </trkpt>
      <trkpt lat="49.73665" lon="2.89331">
        <ele>90</ele>
        <time>2012-05-20 07:18:08 +0000</time>
      </trkpt>
      <trkpt lat="49.73641" lon="2.89306">
        <ele>87</ele>
        <time>2012-05-20 07:18:14 +0000</time>
      </trkpt>
      <trkpt lat="49.73619" lon="2.8927">
        <ele>87</ele>
        <time>2012-05-20 07:18:20 +0000</time>
      </trkpt>
      <trkpt lat="49.73594" lon="2.89235">
        <ele>90</ele>
        <time>2012-05-20 07:18:26 +0000</time>
      </trkpt>
      <trkpt lat="49.73571" lon="2.89202">
        <ele>92</ele>
        <time>2012-05-20 07:18:32 +0000</time>
      </trkpt>
      <trkpt lat="49.73547" lon="2.89165">
        <ele>87</ele>
        <time>2012-05-20 07:18:38 +0000</time>
      </trkpt>
      <trkpt lat="49.73515" lon="2.89151">
        <ele>86</ele>
        <time>2012-05-20 07:18:44 +0000</time>
      </trkpt>
      <trkpt lat="49.73481" lon="2.89131">
        <ele>86</ele>
        <time>2012-05-20 07:18:50 +0000</time>
      </trkpt>
      <trkpt lat="49.73445" lon="2.89102">
        <ele>88</ele>
        <time>2012-05-20 07:18:56 +0000</time>
      </trkpt>
      <trkpt lat="49.73422" lon="2.89085">
        <ele>90</ele>
        <time>2012-05-20 07:19:01 +0000</time>
      </trkpt>
      <trkpt lat="49.734" lon="2.89095">
        <ele>93</ele>
        <time>2012-05-20 07:19:07 +0000</time>
      </trkpt>
      <trkpt lat="49.73375" lon="2.89113">
        <ele>89</ele>
        <time>2012-05-20 07:19:13 +0000</time>
      </trkpt>
      <trkpt lat="49.73353" lon="2.89127">
        <ele>90</ele>
        <time>2012-05-20 07:19:18 +0000</time>
      </trkpt>
      <trkpt lat="49.73336" lon="2.89135">
        <ele>91</ele>
        <time>2012-05-20 07:19:23 +0000</time>
      </trkpt>
      <trkpt lat="49.7331" lon="2.89151">
        <ele>89</ele>
        <time>2012-05-20 07:19:29 +0000</time>
      </trkpt>
      <trkpt lat="49.73282" lon="2.89172">
        <ele>94</ele>
        <time>2012-05-20 07:19:35 +0000</time>
      </trkpt>
      <trkpt lat="49.73249" lon="2.89181">
        <ele>92</ele>
        <time>2012-05-20 07:19:41 +0000</time>
      </trkpt>
      <trkpt lat="49.73213" lon="2.89184">
        <ele>91</ele>
        <time>2012-05-20 07:19:47 +0000</time>
      </trkpt>
      <trkpt lat="49.7318" lon="2.89185">
        <ele>88</ele>
        <time>2012-05-20 07:19:53 +0000</time>
      </trkpt>
      <trkpt lat="49.73156" lon="2.89184">
        <ele>90</ele>
        <time>2012-05-20 07:19:59 +0000</time>
      </trkpt>
      <trkpt lat="49.73123" lon="2.89184">
        <ele>89</ele>
        <time>2012-05-20 07:20:05 +0000</time>
      </trkpt>
      <trkpt lat="49.73093" lon="2.89187">
        <ele>87</ele>
        <time>2012-05-20 07:20:11 +0000</time>
      </trkpt>
      <trkpt lat="49.73063" lon="2.89188">
        <ele>87</ele>
        <time>2012-05-20 07:20:17 +0000</time>
      </trkpt>
      <trkpt lat="49.73038" lon="2.8919">
        <ele>95</ele>
        <time>2012-05-20 07:20:23 +0000</time>
      </trkpt>
      <trkpt lat="49.73008" lon="2.89193">
        <ele>91</ele>
        <time>2012-05-20 07:20:29 +0000</time>
      </trkpt>
      <trkpt lat="49.72977" lon="2.89195">
        <ele>87</ele>
        <time>2012-05-20 07:20:35 +0000</time>
      </trkpt>
      <trkpt lat="49.72948" lon="2.89197">
        <ele>87</ele>
        <time>2012-05-20 07:20:41 +0000</time>
      </trkpt>
      <trkpt lat="49.72918" lon="2.89198">
        <ele>86</ele>
        <time>2012-05-20 07:20:47 +0000</time>
      </trkpt>
      <trkpt lat="49.72886" lon="2.892">
        <ele>87</ele>
        <time>2012-05-20 07:20:53 +0000</time>
      </trkpt>
      <trkpt lat="49.72853" lon="2.892">
        <ele>85</ele>
        <time>2012-05-20 07:20:59 +0000</time>
      </trkpt>
      <trkpt lat="49.72817" lon="2.89202">
        <ele>86</ele>
        <time>2012-05-20 07:21:05 +0000</time>
      </trkpt>
      <trkpt lat="49.72787" lon="2.89208">
        <ele>87</ele>
        <time>2012-05-20 07:21:11 +0000</time>
      </trkpt>
      <trkpt lat="49.72761" lon="2.89217">
        <ele>84</ele>
        <time>2012-05-20 07:21:16 +0000</time>
      </trkpt>
      <trkpt lat="49.72733" lon="2.89227">
        <ele>86</ele>
        <time>2012-05-20 07:21:22 +0000</time>
      </trkpt>
      <trkpt lat="49.72723" lon="2.89242">
        <ele>91</ele>
        <time>2012-05-20 07:21:27 +0000</time>
      </trkpt>
      <trkpt lat="49.72731" lon="2.8927">
        <ele>85</ele>
        <time>2012-05-20 07:21:32 +0000</time>
      </trkpt>
      <trkpt lat="49.72744" lon="2.89308">
        <ele>90</ele>
        <time>2012-05-20 07:21:38 +0000</time>
      </trkpt>
      <trkpt lat="49.72754" lon="2.8934">
        <ele>89</ele>
        <time>2012-05-20 07:21:43 +0000</time>
      </trkpt>
      <trkpt lat="49.72765" lon="2.89375">
        <ele>91</ele>
        <time>2012-05-20 07:21:49 +0000</time>
      </trkpt>
      <trkpt lat="49.72775" lon="2.89405">
        <ele>88</ele>
        <time>2012-05-20 07:21:54 +0000</time>
      </trkpt>
      <trkpt lat="49.72784" lon="2.89433">
        <ele>88</ele>
        <time>2012-05-20 07:21:59 +0000</time>
      </trkpt>
      <trkpt lat="49.72795" lon="2.89468">
        <ele>88</ele>
        <time>2012-05-20 07:22:05 +0000</time>
      </trkpt>
      <trkpt lat="49.72803" lon="2.89501">
        <ele>88</ele>
        <time>2012-05-20 07:22:10 +0000</time>
      </trkpt>
      <trkpt lat="49.72815" lon="2.89538">
        <ele>87</ele>
        <time>2012-05-20 07:22:16 +0000</time>
      </trkpt>
      <trkpt lat="49.72826" lon="2.89563">
        <ele>89</ele>
        <time>2012-05-20 07:22:21 +0000</time>
      </trkpt>
      <trkpt lat="49.72838" lon="2.8959">
        <ele>88</ele>
        <time>2012-05-20 07:22:26 +0000</time>
      </trkpt>
      <trkpt lat="49.72853" lon="2.89625">
        <ele>87</ele>
        <time>2012-05-20 07:22:32 +0000</time>
      </trkpt>
      <trkpt lat="49.72867" lon="2.89653">
        <ele>87</ele>
        <time>2012-05-20 07:22:37 +0000</time>
      </trkpt>
      <trkpt lat="49.72882" lon="2.89685">
        <ele>88</ele>
        <time>2012-05-20 07:22:43 +0000</time>
      </trkpt>
      <trkpt lat="49.72899" lon="2.89718">
        <ele>88</ele>
        <time>2012-05-20 07:22:49 +0000</time>
      </trkpt>
      <trkpt lat="49.72911" lon="2.89745">
        <ele>91</ele>
        <time>2012-05-20 07:22:54 +0000</time>
      </trkpt>
      <trkpt lat="49.72924" lon="2.89775">
        <ele>89</ele>
        <time>2012-05-20 07:22:59 +0000</time>
      </trkpt>
      <trkpt lat="49.72942" lon="2.8981">
        <ele>90</ele>
        <time>2012-05-20 07:23:05 +0000</time>
      </trkpt>
      <trkpt lat="49.72959" lon="2.89842">
        <ele>90</ele>
        <time>2012-05-20 07:23:11 +0000</time>
      </trkpt>
      <trkpt lat="49.72973" lon="2.89871">
        <ele>90</ele>
        <time>2012-05-20 07:23:16 +0000</time>
      </trkpt>
      <trkpt lat="49.72987" lon="2.89905">
        <ele>90</ele>
        <time>2012-05-20 07:23:22 +0000</time>
      </trkpt>
      <trkpt lat="49.73002" lon="2.89941">
        <ele>87</ele>
        <time>2012-05-20 07:23:28 +0000</time>
      </trkpt>
      <trkpt lat="49.73018" lon="2.89976">
        <ele>88</ele>
        <time>2012-05-20 07:23:34 +0000</time>
      </trkpt>
      <trkpt lat="49.73035" lon="2.90009">
        <ele>90</ele>
        <time>2012-05-20 07:23:40 +0000</time>
      </trkpt>
      <trkpt lat="49.73049" lon="2.90036">
        <ele>88</ele>
        <time>2012-05-20 07:23:45 +0000</time>
      </trkpt>
      <trkpt lat="49.73062" lon="2.90064">
        <ele>86</ele>
        <time>2012-05-20 07:23:50 +0000</time>
      </trkpt>
      <trkpt lat="49.73075" lon="2.90092">
        <ele>86</ele>
        <time>2012-05-20 07:23:55 +0000</time>
      </trkpt>
      <trkpt lat="49.7309" lon="2.90126">
        <ele>87</ele>
        <time>2012-05-20 07:24:01 +0000</time>
      </trkpt>
      <trkpt lat="49.73104" lon="2.90155">
        <ele>87</ele>
        <time>2012-05-20 07:24:06 +0000</time>
      </trkpt>
      <trkpt lat="49.73117" lon="2.90187">
        <ele>89</ele>
        <time>2012-05-20 07:24:11 +0000</time>
      </trkpt>
      <trkpt lat="49.73137" lon="2.90227">
        <ele>84</ele>
        <time>2012-05-20 07:24:17 +0000</time>
      </trkpt>
      <trkpt lat="49.73154" lon="2.90262">
        <ele>84</ele>
        <time>2012-05-20 07:24:23 +0000</time>
      </trkpt>
      <trkpt lat="49.73171" lon="2.90296">
        <ele>85</ele>
        <time>2012-05-20 07:24:29 +0000</time>
      </trkpt>
      <trkpt lat="49.7318" lon="2.90315">
        <ele>83</ele>
        <time>2012-05-20 07:24:34 +0000</time>
      </trkpt>
      <trkpt lat="49.73165" lon="2.90323">
        <ele>85</ele>
        <time>2012-05-20 07:24:40 +0000</time>
      </trkpt>
      <trkpt lat="49.73139" lon="2.90324">
        <ele>86</ele>
        <time>2012-05-20 07:24:46 +0000</time>
      </trkpt>
      <trkpt lat="49.73112" lon="2.90323">
        <ele>90</ele>
        <time>2012-05-20 07:24:52 +0000</time>
      </trkpt>
      <trkpt lat="49.7309" lon="2.9032">
        <ele>89</ele>
        <time>2012-05-20 07:24:57 +0000</time>
      </trkpt>
      <trkpt lat="49.73069" lon="2.90317">
        <ele>89</ele>
        <time>2012-05-20 07:25:02 +0000</time>
      </trkpt>
      <trkpt lat="49.73043" lon="2.90314">
        <ele>91</ele>
        <time>2012-05-20 07:25:08 +0000</time>
      </trkpt>
      <trkpt lat="49.73022" lon="2.90311">
        <ele>89</ele>
        <time>2012-05-20 07:25:13 +0000</time>
      </trkpt>
      <trkpt lat="49.72996" lon="2.9031">
        <ele>88</ele>
        <time>2012-05-20 07:25:19 +0000</time>
      </trkpt>
      <trkpt lat="49.72974" lon="2.90314">
        <ele>91</ele>
        <time>2012-05-20 07:25:24 +0000</time>
      </trkpt>
      <trkpt lat="49.72954" lon="2.90329">
        <ele>86</ele>
        <time>2012-05-20 07:25:29 +0000</time>
      </trkpt>
      <trkpt lat="49.72934" lon="2.90354">
        <ele>88</ele>
        <time>2012-05-20 07:25:35 +0000</time>
      </trkpt>
      <trkpt lat="49.72915" lon="2.90384">
        <ele>88</ele>
        <time>2012-05-20 07:25:41 +0000</time>
      </trkpt>
      <trkpt lat="49.72898" lon="2.90415">
        <ele>85</ele>
        <time>2012-05-20 07:25:47 +0000</time>
      </trkpt>
      <trkpt lat="49.72882" lon="2.90446">
        <ele>85</ele>
        <time>2012-05-20 07:25:53 +0000</time>
      </trkpt>
      <trkpt lat="49.72864" lon="2.90481">
        <ele>84</ele>
        <time>2012-05-20 07:25:59 +0000</time>
      </trkpt>
      <trkpt lat="49.72846" lon="2.90514">
        <ele>88</ele>
        <time>2012-05-20 07:26:05 +0000</time>
      </trkpt>
      <trkpt lat="49.72833" lon="2.90539">
        <ele>86</ele>
        <time>2012-05-20 07:26:11 +0000</time>
      </trkpt>
      <trkpt lat="49.72818" lon="2.90564">
        <ele>88</ele>
        <time>2012-05-20 07:26:17 +0000</time>
      </trkpt>
      <trkpt lat="49.72801" lon="2.9059">
        <ele>89</ele>
        <time>2012-05-20 07:26:23 +0000</time>
      </trkpt>
      <trkpt lat="49.72785" lon="2.90613">
        <ele>88</ele>
        <time>2012-05-20 07:26:29 +0000</time>
      </trkpt>
      <trkpt lat="49.72765" lon="2.90644">
        <ele>84</ele>
        <time>2012-05-20 07:26:35 +0000</time>
      </trkpt>
      <trkpt lat="49.72741" lon="2.90676">
        <ele>84</ele>
        <time>2012-05-20 07:26:41 +0000</time>
      </trkpt>
      <trkpt lat="49.72719" lon="2.90708">
        <ele>85</ele>
        <time>2012-05-20 07:26:47 +0000</time>
      </trkpt>
      <trkpt lat="49.72697" lon="2.9074">
        <ele>87</ele>
        <time>2012-05-20 07:26:53 +0000</time>
      </trkpt>
      <trkpt lat="49.72672" lon="2.90773">
        <ele>84</ele>
        <time>2012-05-20 07:26:59 +0000</time>
      </trkpt>
      <trkpt lat="49.72648" lon="2.90803">
        <ele>84</ele>
        <time>2012-05-20 07:27:05 +0000</time>
      </trkpt>
      <trkpt lat="49.72625" lon="2.90832">
        <ele>82</ele>
        <time>2012-05-20 07:27:11 +0000</time>
      </trkpt>
      <trkpt lat="49.72604" lon="2.90859">
        <ele>82</ele>
        <time>2012-05-20 07:27:17 +0000</time>
      </trkpt>
      <trkpt lat="49.72601" lon="2.90861">
        <ele>82</ele>
        <time>2012-05-20 07:27:23 +0000</time>
      </trkpt>
      <trkpt lat="49.72597" lon="2.90865">
        <ele>83</ele>
        <time>2012-05-20 07:27:29 +0000</time>
      </trkpt>
      <trkpt lat="49.72583" lon="2.90882">
        <ele>85</ele>
        <time>2012-05-20 07:27:35 +0000</time>
      </trkpt>
      <trkpt lat="49.72563" lon="2.90906">
        <ele>82</ele>
        <time>2012-05-20 07:27:41 +0000</time>
      </trkpt>
      <trkpt lat="49.72552" lon="2.90921">
        <ele>82</ele>
        <time>2012-05-20 07:27:46 +0000</time>
      </trkpt>
      <trkpt lat="49.72532" lon="2.90943">
        <ele>80</ele>
        <time>2012-05-20 07:27:52 +0000</time>
      </trkpt>
      <trkpt lat="49.72517" lon="2.90958">
        <ele>77</ele>
        <time>2012-05-20 07:27:57 +0000</time>
      </trkpt>
      <trkpt lat="49.72503" lon="2.90972">
        <ele>78</ele>
        <time>2012-05-20 07:28:02 +0000</time>
      </trkpt>
      <trkpt lat="49.72496" lon="2.90983">
        <ele>79</ele>
        <time>2012-05-20 07:28:08 +0000</time>
      </trkpt>
      <trkpt lat="49.72498" lon="2.90985">
        <ele>77</ele>
        <time>2012-05-20 07:28:14 +0000</time>
      </trkpt>
      <trkpt lat="49.725" lon="2.90987">
        <ele>76</ele>
        <time>2012-05-20 07:28:20 +0000</time>
      </trkpt>
      <trkpt lat="49.725" lon="2.90987">
        <ele>78</ele>
        <time>2012-05-20 07:28:26 +0000</time>
      </trkpt>
      <trkpt lat="49.72501" lon="2.90989">
        <ele>80</ele>
        <time>2012-05-20 07:28:32 +0000</time>
      </trkpt>
      <trkpt lat="49.72512" lon="2.91002">
        <ele>79</ele>
        <time>2012-05-20 07:28:38 +0000</time>
      </trkpt>
      <trkpt lat="49.72527" lon="2.91026">
        <ele>76</ele>
        <time>2012-05-20 07:28:44 +0000</time>
      </trkpt>
      <trkpt lat="49.72543" lon="2.91058">
        <ele>73</ele>
        <time>2012-05-20 07:28:50 +0000</time>
      </trkpt>
      <trkpt lat="49.72552" lon="2.91087">
        <ele>75</ele>
        <time>2012-05-20 07:28:56 +0000</time>
      </trkpt>
      <trkpt lat="49.72557" lon="2.91111">
        <ele>82</ele>
        <time>2012-05-20 07:29:01 +0000</time>
      </trkpt>
      <trkpt lat="49.72566" lon="2.91141">
        <ele>82</ele>
        <time>2012-05-20 07:29:07 +0000</time>
      </trkpt>
      <trkpt lat="49.72577" lon="2.91175">
        <ele>81</ele>
        <time>2012-05-20 07:29:13 +0000</time>
      </trkpt>
      <trkpt lat="49.72585" lon="2.91206">
        <ele>82</ele>
        <time>2012-05-20 07:29:19 +0000</time>
      </trkpt>
      <trkpt lat="49.72594" lon="2.91233">
        <ele>81</ele>
        <time>2012-05-20 07:29:24 +0000</time>
      </trkpt>
      <trkpt lat="49.72605" lon="2.91258">
        <ele>80</ele>
        <time>2012-05-20 07:29:29 +0000</time>
      </trkpt>
      <trkpt lat="49.72617" lon="2.91289">
        <ele>80</ele>
        <time>2012-05-20 07:29:35 +0000</time>
      </trkpt>
      <trkpt lat="49.72628" lon="2.91311">
        <ele>81</ele>
        <time>2012-05-20 07:29:40 +0000</time>
      </trkpt>
      <trkpt lat="49.72646" lon="2.91336">
        <ele>81</ele>
        <time>2012-05-20 07:29:46 +0000</time>
      </trkpt>
      <trkpt lat="49.72665" lon="2.91363">
        <ele>82</ele>
        <time>2012-05-20 07:29:52 +0000</time>
      </trkpt>
      <trkpt lat="49.7268" lon="2.91387">
        <ele>81</ele>
        <time>2012-05-20 07:29:57 +0000</time>
      </trkpt>
      <trkpt lat="49.72692" lon="2.91405">
        <ele>83</ele>
        <time>2012-05-20 07:30:02 +0000</time>
      </trkpt>
      <trkpt lat="49.72708" lon="2.91431">
        <ele>81</ele>
        <time>2012-05-20 07:30:08 +0000</time>
      </trkpt>
      <trkpt lat="49.72726" lon="2.91457">
        <ele>78</ele>
        <time>2012-05-20 07:30:14 +0000</time>
      </trkpt>
      <trkpt lat="49.72737" lon="2.91471">
        <ele>78</ele>
        <time>2012-05-20 07:30:19 +0000</time>
      </trkpt>
      <trkpt lat="49.72755" lon="2.91491">
        <ele>80</ele>
        <time>2012-05-20 07:30:25 +0000</time>
      </trkpt>
      <trkpt lat="49.72771" lon="2.91512">
        <ele>81</ele>
        <time>2012-05-20 07:30:30 +0000</time>
      </trkpt>
      <trkpt lat="49.72787" lon="2.91531">
        <ele>78</ele>
        <time>2012-05-20 07:30:35 +0000</time>
      </trkpt>
      <trkpt lat="49.7281" lon="2.91559">
        <ele>74</ele>
        <time>2012-05-20 07:30:41 +0000</time>
      </trkpt>
      <trkpt lat="49.72833" lon="2.91581">
        <ele>77</ele>
        <time>2012-05-20 07:30:47 +0000</time>
      </trkpt>
      <trkpt lat="49.72847" lon="2.91593">
        <ele>80</ele>
        <time>2012-05-20 07:30:53 +0000</time>
      </trkpt>
      <trkpt lat="49.72859" lon="2.91603">
        <ele>81</ele>
        <time>2012-05-20 07:30:58 +0000</time>
      </trkpt>
      <trkpt lat="49.72871" lon="2.91626">
        <ele>80</ele>
        <time>2012-05-20 07:31:04 +0000</time>
      </trkpt>
      <trkpt lat="49.7288" lon="2.91649">
        <ele>78</ele>
        <time>2012-05-20 07:31:09 +0000</time>
      </trkpt>
      <trkpt lat="49.7289" lon="2.91671">
        <ele>80</ele>
        <time>2012-05-20 07:31:14 +0000</time>
      </trkpt>
      <trkpt lat="49.72901" lon="2.91693">
        <ele>81</ele>
        <time>2012-05-20 07:31:19 +0000</time>
      </trkpt>
      <trkpt lat="49.72914" lon="2.9172">
        <ele>80</ele>
        <time>2012-05-20 07:31:25 +0000</time>
      </trkpt>
      <trkpt lat="49.72924" lon="2.91745">
        <ele>80</ele>
        <time>2012-05-20 07:31:30 +0000</time>
      </trkpt>
      <trkpt lat="49.72935" lon="2.91769">
        <ele>78</ele>
        <time>2012-05-20 07:31:35 +0000</time>
      </trkpt>
      <trkpt lat="49.72953" lon="2.91791">
        <ele>76</ele>
        <time>2012-05-20 07:31:41 +0000</time>
      </trkpt>
      <trkpt lat="49.72968" lon="2.91806">
        <ele>75</ele>
        <time>2012-05-20 07:31:47 +0000</time>
      </trkpt>
      <trkpt lat="49.72976" lon="2.91815">
        <ele>76</ele>
        <time>2012-05-20 07:31:53 +0000</time>
      </trkpt>
      <trkpt lat="49.72994" lon="2.91836">
        <ele>79</ele>
        <time>2012-05-20 07:31:59 +0000</time>
      </trkpt>
      <trkpt lat="49.73014" lon="2.9186">
        <ele>78</ele>
        <time>2012-05-20 07:32:05 +0000</time>
      </trkpt>
      <trkpt lat="49.73037" lon="2.91882">
        <ele>74</ele>
        <time>2012-05-20 07:32:11 +0000</time>
      </trkpt>
      <trkpt lat="49.73063" lon="2.91908">
        <ele>75</ele>
        <time>2012-05-20 07:32:17 +0000</time>
      </trkpt>
      <trkpt lat="49.73085" lon="2.9193">
        <ele>73</ele>
        <time>2012-05-20 07:32:23 +0000</time>
      </trkpt>
      <trkpt lat="49.73108" lon="2.91952">
        <ele>75</ele>
        <time>2012-05-20 07:32:29 +0000</time>
      </trkpt>
      <trkpt lat="49.73131" lon="2.91974">
        <ele>76</ele>
        <time>2012-05-20 07:32:35 +0000</time>
      </trkpt>
      <trkpt lat="49.73156" lon="2.91999">
        <ele>71</ele>
        <time>2012-05-20 07:32:41 +0000</time>
      </trkpt>
      <trkpt lat="49.73176" lon="2.92019">
        <ele>72</ele>
        <time>2012-05-20 07:32:47 +0000</time>
      </trkpt>
      <trkpt lat="49.73195" lon="2.92037">
        <ele>71</ele>
        <time>2012-05-20 07:32:53 +0000</time>
      </trkpt>
      <trkpt lat="49.73197" lon="2.92063">
        <ele>80</ele>
        <time>2012-05-20 07:32:59 +0000</time>
      </trkpt>
      <trkpt lat="49.73188" lon="2.92097">
        <ele>76</ele>
        <time>2012-05-20 07:33:05 +0000</time>
      </trkpt>
      <trkpt lat="49.73181" lon="2.92128">
        <ele>74</ele>
        <time>2012-05-20 07:33:11 +0000</time>
      </trkpt>
      <trkpt lat="49.73171" lon="2.92172">
        <ele>74</ele>
        <time>2012-05-20 07:33:17 +0000</time>
      </trkpt>
      <trkpt lat="49.73163" lon="2.92206">
        <ele>76</ele>
        <time>2012-05-20 07:33:23 +0000</time>
      </trkpt>
      <trkpt lat="49.73158" lon="2.92235">
        <ele>74</ele>
        <time>2012-05-20 07:33:28 +0000</time>
      </trkpt>
      <trkpt lat="49.73151" lon="2.92267">
        <ele>76</ele>
        <time>2012-05-20 07:33:34 +0000</time>
      </trkpt>
      <trkpt lat="49.73145" lon="2.92298">
        <ele>75</ele>
        <time>2012-05-20 07:33:40 +0000</time>
      </trkpt>
      <trkpt lat="49.73137" lon="2.92327">
        <ele>75</ele>
        <time>2012-05-20 07:33:46 +0000</time>
      </trkpt>
      <trkpt lat="49.73132" lon="2.92354">
        <ele>76</ele>
        <time>2012-05-20 07:33:52 +0000</time>
      </trkpt>
      <trkpt lat="49.73127" lon="2.92381">
        <ele>74</ele>
        <time>2012-05-20 07:33:57 +0000</time>
      </trkpt>
      <trkpt lat="49.73122" lon="2.92404">
        <ele>73</ele>
        <time>2012-05-20 07:34:02 +0000</time>
      </trkpt>
      <trkpt lat="49.73114" lon="2.92433">
        <ele>76</ele>
        <time>2012-05-20 07:34:08 +0000</time>
      </trkpt>
      <trkpt lat="49.73104" lon="2.9246">
        <ele>78</ele>
        <time>2012-05-20 07:34:14 +0000</time>
      </trkpt>
      <trkpt lat="49.73093" lon="2.9249">
        <ele>72</ele>
        <time>2012-05-20 07:34:20 +0000</time>
      </trkpt>
      <trkpt lat="49.73083" lon="2.92518">
        <ele>75</ele>
        <time>2012-05-20 07:34:26 +0000</time>
      </trkpt>
      <trkpt lat="49.73075" lon="2.92544">
        <ele>76</ele>
        <time>2012-05-20 07:34:32 +0000</time>
      </trkpt>
      <trkpt lat="49.7307" lon="2.92563">
        <ele>77</ele>
        <time>2012-05-20 07:34:37 +0000</time>
      </trkpt>
      <trkpt lat="49.73066" lon="2.92578">
        <ele>72</ele>
        <time>2012-05-20 07:34:42 +0000</time>
      </trkpt>
      <trkpt lat="49.7306" lon="2.92604">
        <ele>72</ele>
        <time>2012-05-20 07:34:48 +0000</time>
      </trkpt>
      <trkpt lat="49.73055" lon="2.92628">
        <ele>72</ele>
        <time>2012-05-20 07:34:53 +0000</time>
      </trkpt>
      <trkpt lat="49.7305" lon="2.92652">
        <ele>76</ele>
        <time>2012-05-20 07:34:59 +0000</time>
      </trkpt>
      <trkpt lat="49.73045" lon="2.92674">
        <ele>74</ele>
        <time>2012-05-20 07:35:05 +0000</time>
      </trkpt>
      <trkpt lat="49.73046" lon="2.92696">
        <ele>67</ele>
        <time>2012-05-20 07:35:11 +0000</time>
      </trkpt>
      <trkpt lat="49.73048" lon="2.927">
        <ele>67</ele>
        <time>2012-05-20 07:35:17 +0000</time>
      </trkpt>
      <trkpt lat="49.73048" lon="2.927">
        <ele>70</ele>
        <time>2012-05-20 07:35:23 +0000</time>
      </trkpt>
      <trkpt lat="49.73051" lon="2.92703">
        <ele>68</ele>
        <time>2012-05-20 07:35:29 +0000</time>
      </trkpt>
      <trkpt lat="49.73056" lon="2.92712">
        <ele>65</ele>
        <time>2012-05-20 07:35:34 +0000</time>
      </trkpt>
      <trkpt lat="49.73061" lon="2.9273">
        <ele>68</ele>
        <time>2012-05-20 07:35:40 +0000</time>
      </trkpt>
      <trkpt lat="49.73064" lon="2.92735">
        <ele>68</ele>
        <time>2012-05-20 07:35:46 +0000</time>
      </trkpt>
      <trkpt lat="49.7307" lon="2.9275">
        <ele>71</ele>
        <time>2012-05-20 07:35:51 +0000</time>
      </trkpt>
      <trkpt lat="49.73076" lon="2.92769">
        <ele>70</ele>
        <time>2012-05-20 07:35:56 +0000</time>
      </trkpt>
      <trkpt lat="49.73066" lon="2.92783">
        <ele>71</ele>
        <time>2012-05-20 07:36:02 +0000</time>
      </trkpt>
      <trkpt lat="49.73042" lon="2.92801">
        <ele>72</ele>
        <time>2012-05-20 07:36:08 +0000</time>
      </trkpt>
      <trkpt lat="49.73019" lon="2.92818">
        <ele>70</ele>
        <time>2012-05-20 07:36:14 +0000</time>
      </trkpt>
      <trkpt lat="49.72993" lon="2.92833">
        <ele>72</ele>
        <time>2012-05-20 07:36:20 +0000</time>
      </trkpt>
      <trkpt lat="49.7297" lon="2.92849">
        <ele>71</ele>
        <time>2012-05-20 07:36:26 +0000</time>
      </trkpt>
      <trkpt lat="49.72949" lon="2.92864">
        <ele>72</ele>
        <time>2012-05-20 07:36:32 +0000</time>
      </trkpt>
      <trkpt lat="49.72927" lon="2.92877">
        <ele>70</ele>
        <time>2012-05-20 07:36:38 +0000</time>
      </trkpt>
      <trkpt lat="49.72904" lon="2.92883">
        <ele>72</ele>
        <time>2012-05-20 07:36:44 +0000</time>
      </trkpt>
      <trkpt lat="49.72879" lon="2.9289">
        <ele>72</ele>
        <time>2012-05-20 07:36:50 +0000</time>
      </trkpt>
      <trkpt lat="49.72857" lon="2.92894">
        <ele>72</ele>
        <time>2012-05-20 07:36:56 +0000</time>
      </trkpt>
      <trkpt lat="49.72836" lon="2.92901">
        <ele>71</ele>
        <time>2012-05-20 07:37:02 +0000</time>
      </trkpt>
      <trkpt lat="49.72826" lon="2.92913">
        <ele>72</ele>
        <time>2012-05-20 07:37:08 +0000</time>
      </trkpt>
      <trkpt lat="49.72837" lon="2.92938">
        <ele>72</ele>
        <time>2012-05-20 07:37:14 +0000</time>
      </trkpt>
      <trkpt lat="49.72852" lon="2.92974">
        <ele>68</ele>
        <time>2012-05-20 07:37:20 +0000</time>
      </trkpt>
      <trkpt lat="49.72868" lon="2.93009">
        <ele>66</ele>
        <time>2012-05-20 07:37:26 +0000</time>
      </trkpt>
      <trkpt lat="49.72886" lon="2.93051">
        <ele>66</ele>
        <time>2012-05-20 07:37:32 +0000</time>
      </trkpt>
      <trkpt lat="49.72902" lon="2.9309">
        <ele>64</ele>
        <time>2012-05-20 07:37:38 +0000</time>
      </trkpt>
      <trkpt lat="49.7292" lon="2.93132">
        <ele>67</ele>
        <time>2012-05-20 07:37:44 +0000</time>
      </trkpt>
      <trkpt lat="49.72937" lon="2.93173">
        <ele>65</ele>
        <time>2012-05-20 07:37:50 +0000</time>
      </trkpt>
      <trkpt lat="49.72948" lon="2.93204">
        <ele>64</ele>
        <time>2012-05-20 07:37:55 +0000</time>
      </trkpt>
      <trkpt lat="49.72952" lon="2.9324">
        <ele>65</ele>
        <time>2012-05-20 07:38:01 +0000</time>
      </trkpt>
      <trkpt lat="49.72941" lon="2.93269">
        <ele>70</ele>
        <time>2012-05-20 07:38:06 +0000</time>
      </trkpt>
      <trkpt lat="49.72932" lon="2.93303">
        <ele>63</ele>
        <time>2012-05-20 07:38:11 +0000</time>
      </trkpt>
      <trkpt lat="49.72921" lon="2.93341">
        <ele>70</ele>
        <time>2012-05-20 07:38:16 +0000</time>
      </trkpt>
      <trkpt lat="49.7291" lon="2.93384">
        <ele>70</ele>
        <time>2012-05-20 07:38:22 +0000</time>
      </trkpt>
      <trkpt lat="49.72899" lon="2.93425">
        <ele>70</ele>
        <time>2012-05-20 07:38:28 +0000</time>
      </trkpt>
      <trkpt lat="49.72888" lon="2.93466">
        <ele>69</ele>
        <time>2012-05-20 07:38:34 +0000</time>
      </trkpt>
      <trkpt lat="49.72879" lon="2.93511">
        <ele>69</ele>
        <time>2012-05-20 07:38:40 +0000</time>
      </trkpt>
      <trkpt lat="49.72871" lon="2.93549">
        <ele>67</ele>
        <time>2012-05-20 07:38:45 +0000</time>
      </trkpt>
      <trkpt lat="49.7286" lon="2.93594">
        <ele>69</ele>
        <time>2012-05-20 07:38:50 +0000</time>
      </trkpt>
      <trkpt lat="49.72847" lon="2.93655">
        <ele>68</ele>
        <time>2012-05-20 07:38:56 +0000</time>
      </trkpt>
      <trkpt lat="49.72835" lon="2.93713">
        <ele>62</ele>
        <time>2012-05-20 07:39:02 +0000</time>
      </trkpt>
      <trkpt lat="49.72821" lon="2.93772">
        <ele>62</ele>
        <time>2012-05-20 07:39:08 +0000</time>
      </trkpt>
      <trkpt lat="49.7281" lon="2.93823">
        <ele>63</ele>
        <time>2012-05-20 07:39:13 +0000</time>
      </trkpt>
      <trkpt lat="49.72798" lon="2.93878">
        <ele>64</ele>
        <time>2012-05-20 07:39:19 +0000</time>
      </trkpt>
      <trkpt lat="49.72791" lon="2.93911">
        <ele>60</ele>
        <time>2012-05-20 07:39:24 +0000</time>
      </trkpt>
      <trkpt lat="49.72784" lon="2.93947">
        <ele>62</ele>
        <time>2012-05-20 07:39:29 +0000</time>
      </trkpt>
      <trkpt lat="49.72774" lon="2.93995">
        <ele>66</ele>
        <time>2012-05-20 07:39:35 +0000</time>
      </trkpt>
      <trkpt lat="49.72762" lon="2.94037">
        <ele>66</ele>
        <time>2012-05-20 07:39:41 +0000</time>
      </trkpt>
      <trkpt lat="49.72739" lon="2.94072">
        <ele>66</ele>
        <time>2012-05-20 07:39:47 +0000</time>
      </trkpt>
      <trkpt lat="49.72723" lon="2.94118">
        <ele>68</ele>
        <time>2012-05-20 07:39:53 +0000</time>
      </trkpt>
      <trkpt lat="49.72709" lon="2.94162">
        <ele>66</ele>
        <time>2012-05-20 07:39:59 +0000</time>
      </trkpt>
      <trkpt lat="49.72692" lon="2.94213">
        <ele>68</ele>
        <time>2012-05-20 07:40:05 +0000</time>
      </trkpt>
      <trkpt lat="49.72676" lon="2.94261">
        <ele>68</ele>
        <time>2012-05-20 07:40:11 +0000</time>
      </trkpt>
      <trkpt lat="49.7266" lon="2.94305">
        <ele>68</ele>
        <time>2012-05-20 07:40:17 +0000</time>
      </trkpt>
      <trkpt lat="49.72645" lon="2.94351">
        <ele>70</ele>
        <time>2012-05-20 07:40:23 +0000</time>
      </trkpt>
      <trkpt lat="49.72634" lon="2.94389">
        <ele>72</ele>
        <time>2012-05-20 07:40:28 +0000</time>
      </trkpt>
      <trkpt lat="49.72621" lon="2.94426">
        <ele>74</ele>
        <time>2012-05-20 07:40:34 +0000</time>
      </trkpt>
      <trkpt lat="49.72607" lon="2.94465">
        <ele>71</ele>
        <time>2012-05-20 07:40:40 +0000</time>
      </trkpt>
      <trkpt lat="49.7262" lon="2.9448">
        <ele>64</ele>
        <time>2012-05-20 07:40:46 +0000</time>
      </trkpt>
      <trkpt lat="49.72636" lon="2.94493">
        <ele>62</ele>
        <time>2012-05-20 07:40:51 +0000</time>
      </trkpt>
      <trkpt lat="49.72657" lon="2.94506">
        <ele>64</ele>
        <time>2012-05-20 07:40:56 +0000</time>
      </trkpt>
      <trkpt lat="49.72682" lon="2.94522">
        <ele>65</ele>
        <time>2012-05-20 07:41:02 +0000</time>
      </trkpt>
      <trkpt lat="49.727" lon="2.94534">
        <ele>61</ele>
        <time>2012-05-20 07:41:07 +0000</time>
      </trkpt>
      <trkpt lat="49.72718" lon="2.94545">
        <ele>66</ele>
        <time>2012-05-20 07:41:13 +0000</time>
      </trkpt>
      <trkpt lat="49.72737" lon="2.94555">
        <ele>68</ele>
        <time>2012-05-20 07:41:19 +0000</time>
      </trkpt>
      <trkpt lat="49.72756" lon="2.94561">
        <ele>67</ele>
        <time>2012-05-20 07:41:24 +0000</time>
      </trkpt>
      <trkpt lat="49.72772" lon="2.94567">
        <ele>65</ele>
        <time>2012-05-20 07:41:29 +0000</time>
      </trkpt>
      <trkpt lat="49.72794" lon="2.94575">
        <ele>71</ele>
        <time>2012-05-20 07:41:35 +0000</time>
      </trkpt>
      <trkpt lat="49.72819" lon="2.94583">
        <ele>70</ele>
        <time>2012-05-20 07:41:41 +0000</time>
      </trkpt>
      <trkpt lat="49.72836" lon="2.94588">
        <ele>75</ele>
        <time>2012-05-20 07:41:46 +0000</time>
      </trkpt>
      <trkpt lat="49.72863" lon="2.94596">
        <ele>71</ele>
        <time>2012-05-20 07:41:52 +0000</time>
      </trkpt>
      <trkpt lat="49.72887" lon="2.94603">
        <ele>73</ele>
        <time>2012-05-20 07:41:58 +0000</time>
      </trkpt>
      <trkpt lat="49.72912" lon="2.94611">
        <ele>69</ele>
        <time>2012-05-20 07:42:04 +0000</time>
      </trkpt>
      <trkpt lat="49.72941" lon="2.94619">
        <ele>68</ele>
        <time>2012-05-20 07:42:10 +0000</time>
      </trkpt>
      <trkpt lat="49.72962" lon="2.94625">
        <ele>66</ele>
        <time>2012-05-20 07:42:15 +0000</time>
      </trkpt>
      <trkpt lat="49.72991" lon="2.94634">
        <ele>63</ele>
        <time>2012-05-20 07:42:21 +0000</time>
      </trkpt>
      <trkpt lat="49.73012" lon="2.94642">
        <ele>65</ele>
        <time>2012-05-20 07:42:26 +0000</time>
      </trkpt>
      <trkpt lat="49.73042" lon="2.94652">
        <ele>70</ele>
        <time>2012-05-20 07:42:32 +0000</time>
      </trkpt>
      <trkpt lat="49.73075" lon="2.94665">
        <ele>64</ele>
        <time>2012-05-20 07:42:38 +0000</time>
      </trkpt>
      <trkpt lat="49.73096" lon="2.94669">
        <ele>61</ele>
        <time>2012-05-20 07:42:43 +0000</time>
      </trkpt>
      <trkpt lat="49.73127" lon="2.9468">
        <ele>64</ele>
        <time>2012-05-20 07:42:49 +0000</time>
      </trkpt>
      <trkpt lat="49.73156" lon="2.94691">
        <ele>65</ele>
        <time>2012-05-20 07:42:55 +0000</time>
      </trkpt>
      <trkpt lat="49.73183" lon="2.94698">
        <ele>64</ele>
        <time>2012-05-20 07:43:00 +0000</time>
      </trkpt>
      <trkpt lat="49.73207" lon="2.94707">
        <ele>72</ele>
        <time>2012-05-20 07:43:05 +0000</time>
      </trkpt>
      <trkpt lat="49.73239" lon="2.94718">
        <ele>65</ele>
        <time>2012-05-20 07:43:11 +0000</time>
      </trkpt>
      <trkpt lat="49.73268" lon="2.94728">
        <ele>65</ele>
        <time>2012-05-20 07:43:17 +0000</time>
      </trkpt>
      <trkpt lat="49.73297" lon="2.94736">
        <ele>66</ele>
        <time>2012-05-20 07:43:23 +0000</time>
      </trkpt>
      <trkpt lat="49.73326" lon="2.94742">
        <ele>63</ele>
        <time>2012-05-20 07:43:29 +0000</time>
      </trkpt>
      <trkpt lat="49.73347" lon="2.94746">
        <ele>61</ele>
        <time>2012-05-20 07:43:34 +0000</time>
      </trkpt>
      <trkpt lat="49.7337" lon="2.9475">
        <ele>59</ele>
        <time>2012-05-20 07:43:40 +0000</time>
      </trkpt>
      <trkpt lat="49.73392" lon="2.94755">
        <ele>63</ele>
        <time>2012-05-20 07:43:45 +0000</time>
      </trkpt>
      <trkpt lat="49.7342" lon="2.9476">
        <ele>60</ele>
        <time>2012-05-20 07:43:51 +0000</time>
      </trkpt>
      <trkpt lat="49.73441" lon="2.94764">
        <ele>58</ele>
        <time>2012-05-20 07:43:56 +0000</time>
      </trkpt>
      <trkpt lat="49.73456" lon="2.94767">
        <ele>60</ele>
        <time>2012-05-20 07:44:02 +0000</time>
      </trkpt>
      <trkpt lat="49.73456" lon="2.94767">
        <ele>60</ele>
        <time>2012-05-20 07:44:08 +0000</time>
      </trkpt>
      <trkpt lat="49.73457" lon="2.94769">
        <ele>57</ele>
        <time>2012-05-20 07:44:13 +0000</time>
      </trkpt>
      <trkpt lat="49.73457" lon="2.94769">
        <ele>56</ele>
        <time>2012-05-20 07:44:19 +0000</time>
      </trkpt>
      <trkpt lat="49.73457" lon="2.94769">
        <ele>60</ele>
        <time>2012-05-20 07:44:24 +0000</time>
      </trkpt>
      <trkpt lat="49.73457" lon="2.9477">
        <ele>60</ele>
        <time>2012-05-20 07:44:29 +0000</time>
      </trkpt>
      <trkpt lat="49.73457" lon="2.9477">
        <ele>63</ele>
        <time>2012-05-20 07:44:34 +0000</time>
      </trkpt>
      <trkpt lat="49.73458" lon="2.9477">
        <ele>51</ele>
        <time>2012-05-20 07:44:40 +0000</time>
      </trkpt>
      <trkpt lat="49.73458" lon="2.9477">
        <ele>56</ele>
        <time>2012-05-20 07:44:45 +0000</time>
      </trkpt>
      <trkpt lat="49.73458" lon="2.9477">
        <ele>60</ele>
        <time>2012-05-20 07:44:50 +0000</time>
      </trkpt>
      <trkpt lat="49.73457" lon="2.94771">
        <ele>56</ele>
        <time>2012-05-20 07:46:09 +0000</time>
      </trkpt>
      <trkpt lat="49.73457" lon="2.9477">
        <ele>54</ele>
        <time>2012-05-20 07:46:15 +0000</time>
      </trkpt>
      <trkpt lat="49.73457" lon="2.94771">
        <ele>55</ele>
        <time>2012-05-20 07:46:20 +0000</time>
      </trkpt>
      <trkpt lat="49.73458" lon="2.94771">
        <ele>60</ele>
        <time>2012-05-20 07:46:25 +0000</time>
      </trkpt>
      <trkpt lat="49.73475" lon="2.94774">
        <ele>59</ele>
        <time>2012-05-20 07:46:31 +0000</time>
      </trkpt>
      <trkpt lat="49.735" lon="2.94783">
        <ele>57</ele>
        <time>2012-05-20 07:46:37 +0000</time>
      </trkpt>
      <trkpt lat="49.73523" lon="2.94793">
        <ele>56</ele>
        <time>2012-05-20 07:46:43 +0000</time>
      </trkpt>
      <trkpt lat="49.73541" lon="2.94801">
        <ele>58</ele>
        <time>2012-05-20 07:46:49 +0000</time>
      </trkpt>
      <trkpt lat="49.73555" lon="2.9482">
        <ele>59</ele>
        <time>2012-05-20 07:46:55 +0000</time>
      </trkpt>
      <trkpt lat="49.73545" lon="2.94852">
        <ele>60</ele>
        <time>2012-05-20 07:47:01 +0000</time>
      </trkpt>
      <trkpt lat="49.7354" lon="2.94898">
        <ele>62</ele>
        <time>2012-05-20 07:47:07 +0000</time>
      </trkpt>
      <trkpt lat="49.73532" lon="2.94948">
        <ele>58</ele>
        <time>2012-05-20 07:47:13 +0000</time>
      </trkpt>
      <trkpt lat="49.73526" lon="2.94995">
        <ele>59</ele>
        <time>2012-05-20 07:47:19 +0000</time>
      </trkpt>
      <trkpt lat="49.7354" lon="2.95029">
        <ele>56</ele>
        <time>2012-05-20 07:47:25 +0000</time>
      </trkpt>
      <trkpt lat="49.73565" lon="2.95045">
        <ele>60</ele>
        <time>2012-05-20 07:47:31 +0000</time>
      </trkpt>
      <trkpt lat="49.73595" lon="2.95058">
        <ele>59</ele>
        <time>2012-05-20 07:47:37 +0000</time>
      </trkpt>
      <trkpt lat="49.73623" lon="2.95073">
        <ele>60</ele>
        <time>2012-05-20 07:47:43 +0000</time>
      </trkpt>
      <trkpt lat="49.73651" lon="2.95087">
        <ele>61</ele>
        <time>2012-05-20 07:47:49 +0000</time>
      </trkpt>
      <trkpt lat="49.73678" lon="2.95102">
        <ele>60</ele>
        <time>2012-05-20 07:47:55 +0000</time>
      </trkpt>
      <trkpt lat="49.73704" lon="2.95117">
        <ele>58</ele>
        <time>2012-05-20 07:48:01 +0000</time>
      </trkpt>
      <trkpt lat="49.73726" lon="2.9513">
        <ele>58</ele>
        <time>2012-05-20 07:48:06 +0000</time>
      </trkpt>
      <trkpt lat="49.73755" lon="2.95147">
        <ele>58</ele>
        <time>2012-05-20 07:48:12 +0000</time>
      </trkpt>
      <trkpt lat="49.73774" lon="2.95171">
        <ele>57</ele>
        <time>2012-05-20 07:48:18 +0000</time>
      </trkpt>
      <trkpt lat="49.73769" lon="2.95207">
        <ele>61</ele>
        <time>2012-05-20 07:48:23 +0000</time>
      </trkpt>
      <trkpt lat="49.73761" lon="2.95249">
        <ele>59</ele>
        <time>2012-05-20 07:48:28 +0000</time>
      </trkpt>
      <trkpt lat="49.73754" lon="2.95295">
        <ele>61</ele>
        <time>2012-05-20 07:48:34 +0000</time>
      </trkpt>
      <trkpt lat="49.73748" lon="2.95343">
        <ele>64</ele>
        <time>2012-05-20 07:48:40 +0000</time>
      </trkpt>
      <trkpt lat="49.73741" lon="2.95386">
        <ele>63</ele>
        <time>2012-05-20 07:48:46 +0000</time>
      </trkpt>
      <trkpt lat="49.73737" lon="2.95432">
        <ele>63</ele>
        <time>2012-05-20 07:48:52 +0000</time>
      </trkpt>
      <trkpt lat="49.73743" lon="2.95472">
        <ele>60</ele>
        <time>2012-05-20 07:48:58 +0000</time>
      </trkpt>
      <trkpt lat="49.73759" lon="2.95509">
        <ele>62</ele>
        <time>2012-05-20 07:49:04 +0000</time>
      </trkpt>
      <trkpt lat="49.73771" lon="2.95538">
        <ele>60</ele>
        <time>2012-05-20 07:49:09 +0000</time>
      </trkpt>
      <trkpt lat="49.73787" lon="2.95573">
        <ele>62</ele>
        <time>2012-05-20 07:49:15 +0000</time>
      </trkpt>
      <trkpt lat="49.73801" lon="2.95605">
        <ele>63</ele>
        <time>2012-05-20 07:49:20 +0000</time>
      </trkpt>
      <trkpt lat="49.73812" lon="2.95634">
        <ele>62</ele>
        <time>2012-05-20 07:49:25 +0000</time>
      </trkpt>
      <trkpt lat="49.7383" lon="2.95661">
        <ele>60</ele>
        <time>2012-05-20 07:49:31 +0000</time>
      </trkpt>
      <trkpt lat="49.73857" lon="2.95645">
        <ele>61</ele>
        <time>2012-05-20 07:49:37 +0000</time>
      </trkpt>
      <trkpt lat="49.73887" lon="2.95606">
        <ele>58</ele>
        <time>2012-05-20 07:49:43 +0000</time>
      </trkpt>
      <trkpt lat="49.73923" lon="2.95566">
        <ele>56</ele>
        <time>2012-05-20 07:49:49 +0000</time>
      </trkpt>
      <trkpt lat="49.73959" lon="2.95525">
        <ele>58</ele>
        <time>2012-05-20 07:49:55 +0000</time>
      </trkpt>
      <trkpt lat="49.73978" lon="2.95507">
        <ele>60</ele>
        <time>2012-05-20 07:50:00 +0000</time>
      </trkpt>
      <trkpt lat="49.73989" lon="2.95484">
        <ele>56</ele>
        <time>2012-05-20 07:50:06 +0000</time>
      </trkpt>
      <trkpt lat="49.73994" lon="2.95458">
        <ele>57</ele>
        <time>2012-05-20 07:50:11 +0000</time>
      </trkpt>
      <trkpt lat="49.73988" lon="2.95416">
        <ele>57</ele>
        <time>2012-05-20 07:50:17 +0000</time>
      </trkpt>
      <trkpt lat="49.73977" lon="2.95384">
        <ele>58</ele>
        <time>2012-05-20 07:50:22 +0000</time>
      </trkpt>
      <trkpt lat="49.73965" lon="2.95344">
        <ele>59</ele>
        <time>2012-05-20 07:50:28 +0000</time>
      </trkpt>
      <trkpt lat="49.73972" lon="2.95304">
        <ele>60</ele>
        <time>2012-05-20 07:50:34 +0000</time>
      </trkpt>
      <trkpt lat="49.73987" lon="2.95263">
        <ele>56</ele>
        <time>2012-05-20 07:50:40 +0000</time>
      </trkpt>
      <trkpt lat="49.74007" lon="2.95242">
        <ele>58</ele>
        <time>2012-05-20 07:50:45 +0000</time>
      </trkpt>
      <trkpt lat="49.74031" lon="2.95223">
        <ele>54</ele>
        <time>2012-05-20 07:50:51 +0000</time>
      </trkpt>
      <trkpt lat="49.74052" lon="2.95205">
        <ele>58</ele>
        <time>2012-05-20 07:50:56 +0000</time>
      </trkpt>
      <trkpt lat="49.74075" lon="2.95184">
        <ele>62</ele>
        <time>2012-05-20 07:51:02 +0000</time>
      </trkpt>
      <trkpt lat="49.74096" lon="2.9517">
        <ele>55</ele>
        <time>2012-05-20 07:51:07 +0000</time>
      </trkpt>
      <trkpt lat="49.74121" lon="2.95158">
        <ele>55</ele>
        <time>2012-05-20 07:51:13 +0000</time>
      </trkpt>
      <trkpt lat="49.74145" lon="2.95146">
        <ele>58</ele>
        <time>2012-05-20 07:51:19 +0000</time>
      </trkpt>
      <trkpt lat="49.74168" lon="2.95135">
        <ele>57</ele>
        <time>2012-05-20 07:51:25 +0000</time>
      </trkpt>
      <trkpt lat="49.74188" lon="2.95128">
        <ele>55</ele>
        <time>2012-05-20 07:51:31 +0000</time>
      </trkpt>
      <trkpt lat="49.74207" lon="2.95121">
        <ele>67</ele>
        <time>2012-05-20 07:51:36 +0000</time>
      </trkpt>
      <trkpt lat="49.74229" lon="2.95114">
        <ele>62</ele>
        <time>2012-05-20 07:51:42 +0000</time>
      </trkpt>
      <trkpt lat="49.74244" lon="2.95104">
        <ele>59</ele>
        <time>2012-05-20 07:51:47 +0000</time>
      </trkpt>
      <trkpt lat="49.74259" lon="2.95096">
        <ele>60</ele>
        <time>2012-05-20 07:51:52 +0000</time>
      </trkpt>
      <trkpt lat="49.74274" lon="2.95084">
        <ele>62</ele>
        <time>2012-05-20 07:51:58 +0000</time>
      </trkpt>
      <trkpt lat="49.74289" lon="2.95073">
        <ele>61</ele>
        <time>2012-05-20 07:52:03 +0000</time>
      </trkpt>
      <trkpt lat="49.74307" lon="2.95059">
        <ele>56</ele>
        <time>2012-05-20 07:52:09 +0000</time>
      </trkpt>
      <trkpt lat="49.74328" lon="2.95042">
        <ele>64</ele>
        <time>2012-05-20 07:52:15 +0000</time>
      </trkpt>
      <trkpt lat="49.74345" lon="2.95029">
        <ele>59</ele>
        <time>2012-05-20 07:52:20 +0000</time>
      </trkpt>
      <trkpt lat="49.74361" lon="2.95017">
        <ele>58</ele>
        <time>2012-05-20 07:52:25 +0000</time>
      </trkpt>
      <trkpt lat="49.74386" lon="2.94994">
        <ele>62</ele>
        <time>2012-05-20 07:52:31 +0000</time>
      </trkpt>
      <trkpt lat="49.74407" lon="2.94976">
        <ele>65</ele>
        <time>2012-05-20 07:52:37 +0000</time>
      </trkpt>
      <trkpt lat="49.7443" lon="2.94954">
        <ele>62</ele>
        <time>2012-05-20 07:52:43 +0000</time>
      </trkpt>
      <trkpt lat="49.74455" lon="2.94932">
        <ele>60</ele>
        <time>2012-05-20 07:52:49 +0000</time>
      </trkpt>
      <trkpt lat="49.74481" lon="2.94911">
        <ele>62</ele>
        <time>2012-05-20 07:52:55 +0000</time>
      </trkpt>
      <trkpt lat="49.74504" lon="2.9489">
        <ele>62</ele>
        <time>2012-05-20 07:53:01 +0000</time>
      </trkpt>
      <trkpt lat="49.74521" lon="2.94869">
        <ele>66</ele>
        <time>2012-05-20 07:53:07 +0000</time>
      </trkpt>
      <trkpt lat="49.74537" lon="2.94853">
        <ele>63</ele>
        <time>2012-05-20 07:53:13 +0000</time>
      </trkpt>
      <trkpt lat="49.74553" lon="2.94831">
        <ele>64</ele>
        <time>2012-05-20 07:53:19 +0000</time>
      </trkpt>
      <trkpt lat="49.74566" lon="2.94815">
        <ele>65</ele>
        <time>2012-05-20 07:53:25 +0000</time>
      </trkpt>
      <trkpt lat="49.74582" lon="2.94805">
        <ele>63</ele>
        <time>2012-05-20 07:53:31 +0000</time>
      </trkpt>
      <trkpt lat="49.74599" lon="2.948">
        <ele>66</ele>
        <time>2012-05-20 07:53:37 +0000</time>
      </trkpt>
      <trkpt lat="49.74612" lon="2.94797">
        <ele>68</ele>
        <time>2012-05-20 07:53:42 +0000</time>
      </trkpt>
      <trkpt lat="49.74628" lon="2.94793">
        <ele>62</ele>
        <time>2012-05-20 07:53:48 +0000</time>
      </trkpt>
      <trkpt lat="49.74645" lon="2.94787">
        <ele>64</ele>
        <time>2012-05-20 07:53:53 +0000</time>
      </trkpt>
      <trkpt lat="49.74659" lon="2.9478">
        <ele>65</ele>
        <time>2012-05-20 07:53:58 +0000</time>
      </trkpt>
      <trkpt lat="49.74678" lon="2.94772">
        <ele>73</ele>
        <time>2012-05-20 07:54:04 +0000</time>
      </trkpt>
      <trkpt lat="49.74696" lon="2.94761">
        <ele>66</ele>
        <time>2012-05-20 07:54:10 +0000</time>
      </trkpt>
      <trkpt lat="49.7471" lon="2.94754">
        <ele>62</ele>
        <time>2012-05-20 07:54:16 +0000</time>
      </trkpt>
      <trkpt lat="49.74727" lon="2.94746">
        <ele>56</ele>
        <time>2012-05-20 07:54:22 +0000</time>
      </trkpt>
      <trkpt lat="49.74745" lon="2.94738">
        <ele>60</ele>
        <time>2012-05-20 07:54:28 +0000</time>
      </trkpt>
      <trkpt lat="49.74764" lon="2.94725">
        <ele>61</ele>
        <time>2012-05-20 07:54:34 +0000</time>
      </trkpt>
      <trkpt lat="49.74783" lon="2.94718">
        <ele>62</ele>
        <time>2012-05-20 07:54:40 +0000</time>
      </trkpt>
      <trkpt lat="49.74803" lon="2.9471">
        <ele>58</ele>
        <time>2012-05-20 07:54:46 +0000</time>
      </trkpt>
      <trkpt lat="49.74825" lon="2.94702">
        <ele>73</ele>
        <time>2012-05-20 07:54:52 +0000</time>
      </trkpt>
      <trkpt lat="49.74845" lon="2.94693">
        <ele>74</ele>
        <time>2012-05-20 07:54:58 +0000</time>
      </trkpt>
      <trkpt lat="49.74866" lon="2.94681">
        <ele>70</ele>
        <time>2012-05-20 07:55:04 +0000</time>
      </trkpt>
      <trkpt lat="49.74889" lon="2.94667">
        <ele>66</ele>
        <time>2012-05-20 07:55:10 +0000</time>
      </trkpt>
      <trkpt lat="49.7491" lon="2.94652">
        <ele>68</ele>
        <time>2012-05-20 07:55:16 +0000</time>
      </trkpt>
      <trkpt lat="49.74932" lon="2.94635">
        <ele>68</ele>
        <time>2012-05-20 07:55:22 +0000</time>
      </trkpt>
      <trkpt lat="49.74958" lon="2.94619">
        <ele>65</ele>
        <time>2012-05-20 07:55:28 +0000</time>
      </trkpt>
      <trkpt lat="49.74982" lon="2.94604">
        <ele>67</ele>
        <time>2012-05-20 07:55:34 +0000</time>
      </trkpt>
      <trkpt lat="49.75005" lon="2.94588">
        <ele>70</ele>
        <time>2012-05-20 07:55:40 +0000</time>
      </trkpt>
      <trkpt lat="49.75026" lon="2.94568">
        <ele>65</ele>
        <time>2012-05-20 07:55:46 +0000</time>
      </trkpt>
      <trkpt lat="49.75048" lon="2.94544">
        <ele>61</ele>
        <time>2012-05-20 07:55:52 +0000</time>
      </trkpt>
      <trkpt lat="49.75069" lon="2.94523">
        <ele>64</ele>
        <time>2012-05-20 07:55:58 +0000</time>
      </trkpt>
      <trkpt lat="49.75074" lon="2.94517">
        <ele>61</ele>
        <time>2012-05-20 07:56:04 +0000</time>
      </trkpt>
      <trkpt lat="49.75077" lon="2.94513">
        <ele>62</ele>
        <time>2012-05-20 07:56:10 +0000</time>
      </trkpt>
      <trkpt lat="49.75082" lon="2.94506">
        <ele>66</ele>
        <time>2012-05-20 07:56:16 +0000</time>
      </trkpt>
      <trkpt lat="49.75088" lon="2.94501">
        <ele>65</ele>
        <time>2012-05-20 07:56:22 +0000</time>
      </trkpt>
      <trkpt lat="49.75095" lon="2.94494">
        <ele>67</ele>
        <time>2012-05-20 07:56:28 +0000</time>
      </trkpt>
      <trkpt lat="49.75113" lon="2.94475">
        <ele>61</ele>
        <time>2012-05-20 07:56:34 +0000</time>
      </trkpt>
      <trkpt lat="49.7513" lon="2.94459">
        <ele>59</ele>
        <time>2012-05-20 07:56:40 +0000</time>
      </trkpt>
      <trkpt lat="49.75148" lon="2.94443">
        <ele>61</ele>
        <time>2012-05-20 07:56:46 +0000</time>
      </trkpt>
      <trkpt lat="49.75168" lon="2.94439">
        <ele>60</ele>
        <time>2012-05-20 07:56:52 +0000</time>
      </trkpt>
      <trkpt lat="49.75173" lon="2.94471">
        <ele>64</ele>
        <time>2012-05-20 07:56:58 +0000</time>
      </trkpt>
      <trkpt lat="49.75182" lon="2.94515">
        <ele>58</ele>
        <time>2012-05-20 07:57:04 +0000</time>
      </trkpt>
      <trkpt lat="49.75209" lon="2.94563">
        <ele>62</ele>
        <time>2012-05-20 07:57:10 +0000</time>
      </trkpt>
      <trkpt lat="49.75231" lon="2.94599">
        <ele>63</ele>
        <time>2012-05-20 07:57:15 +0000</time>
      </trkpt>
      <trkpt lat="49.75254" lon="2.94642">
        <ele>64</ele>
        <time>2012-05-20 07:57:21 +0000</time>
      </trkpt>
      <trkpt lat="49.75276" lon="2.94687">
        <ele>55</ele>
        <time>2012-05-20 07:57:27 +0000</time>
      </trkpt>
      <trkpt lat="49.75296" lon="2.94727">
        <ele>62</ele>
        <time>2012-05-20 07:57:33 +0000</time>
      </trkpt>
      <trkpt lat="49.75313" lon="2.9477">
        <ele>66</ele>
        <time>2012-05-20 07:57:39 +0000</time>
      </trkpt>
      <trkpt lat="49.75325" lon="2.94814">
        <ele>67</ele>
        <time>2012-05-20 07:57:45 +0000</time>
      </trkpt>
      <trkpt lat="49.75337" lon="2.94848">
        <ele>62</ele>
        <time>2012-05-20 07:57:50 +0000</time>
      </trkpt>
      <trkpt lat="49.75353" lon="2.94886">
        <ele>61</ele>
        <time>2012-05-20 07:57:55 +0000</time>
      </trkpt>
      <trkpt lat="49.75373" lon="2.9494">
        <ele>61</ele>
        <time>2012-05-20 07:58:01 +0000</time>
      </trkpt>
      <trkpt lat="49.75391" lon="2.94965">
        <ele>61</ele>
        <time>2012-05-20 07:58:07 +0000</time>
      </trkpt>
      <trkpt lat="49.75413" lon="2.94947">
        <ele>55</ele>
        <time>2012-05-20 07:58:13 +0000</time>
      </trkpt>
      <trkpt lat="49.75441" lon="2.94919">
        <ele>55</ele>
        <time>2012-05-20 07:58:19 +0000</time>
      </trkpt>
      <trkpt lat="49.75469" lon="2.94883">
        <ele>47</ele>
        <time>2012-05-20 07:58:25 +0000</time>
      </trkpt>
      <trkpt lat="49.75492" lon="2.94826">
        <ele>49</ele>
        <time>2012-05-20 07:58:31 +0000</time>
      </trkpt>
      <trkpt lat="49.755" lon="2.94768">
        <ele>48</ele>
        <time>2012-05-20 07:58:37 +0000</time>
      </trkpt>
      <trkpt lat="49.75517" lon="2.94703">
        <ele>56</ele>
        <time>2012-05-20 07:58:43 +0000</time>
      </trkpt>
      <trkpt lat="49.75539" lon="2.9466">
        <ele>52</ele>
        <time>2012-05-20 07:58:49 +0000</time>
      </trkpt>
      <trkpt lat="49.75559" lon="2.94639">
        <ele>50</ele>
        <time>2012-05-20 07:58:54 +0000</time>
      </trkpt>
      <trkpt lat="49.75585" lon="2.94621">
        <ele>49</ele>
        <time>2012-05-20 07:59:00 +0000</time>
      </trkpt>
      <trkpt lat="49.75613" lon="2.94602">
        <ele>58</ele>
        <time>2012-05-20 07:59:06 +0000</time>
      </trkpt>
      <trkpt lat="49.75637" lon="2.94584">
        <ele>55</ele>
        <time>2012-05-20 07:59:11 +0000</time>
      </trkpt>
      <trkpt lat="49.7566" lon="2.94566">
        <ele>59</ele>
        <time>2012-05-20 07:59:16 +0000</time>
      </trkpt>
      <trkpt lat="49.75686" lon="2.94543">
        <ele>65</ele>
        <time>2012-05-20 07:59:22 +0000</time>
      </trkpt>
      <trkpt lat="49.75712" lon="2.94516">
        <ele>55</ele>
        <time>2012-05-20 07:59:28 +0000</time>
      </trkpt>
      <trkpt lat="49.75744" lon="2.94479">
        <ele>52</ele>
        <time>2012-05-20 07:59:34 +0000</time>
      </trkpt>
      <trkpt lat="49.75775" lon="2.94445">
        <ele>52</ele>
        <time>2012-05-20 07:59:40 +0000</time>
      </trkpt>
      <trkpt lat="49.75803" lon="2.94423">
        <ele>51</ele>
        <time>2012-05-20 07:59:46 +0000</time>
      </trkpt>
      <trkpt lat="49.7583" lon="2.944">
        <ele>49</ele>
        <time>2012-05-20 07:59:52 +0000</time>
      </trkpt>
      <trkpt lat="49.75858" lon="2.94379">
        <ele>50</ele>
        <time>2012-05-20 07:59:58 +0000</time>
      </trkpt>
      <trkpt lat="49.75882" lon="2.94358">
        <ele>50</ele>
        <time>2012-05-20 08:00:04 +0000</time>
      </trkpt>
      <trkpt lat="49.75901" lon="2.94343">
        <ele>47</ele>
        <time>2012-05-20 08:00:09 +0000</time>
      </trkpt>
      <trkpt lat="49.75921" lon="2.94326">
        <ele>49</ele>
        <time>2012-05-20 08:00:15 +0000</time>
      </trkpt>
      <trkpt lat="49.75942" lon="2.94315">
        <ele>48</ele>
        <time>2012-05-20 08:00:21 +0000</time>
      </trkpt>
      <trkpt lat="49.7596" lon="2.94303">
        <ele>55</ele>
        <time>2012-05-20 08:00:27 +0000</time>
      </trkpt>
      <trkpt lat="49.75962" lon="2.94302">
        <ele>56</ele>
        <time>2012-05-20 08:00:33 +0000</time>
      </trkpt>
      <trkpt lat="49.75965" lon="2.94304">
        <ele>59</ele>
        <time>2012-05-20 08:00:38 +0000</time>
      </trkpt>
      <trkpt lat="49.75971" lon="2.94303">
        <ele>52</ele>
        <time>2012-05-20 08:00:43 +0000</time>
      </trkpt>
      <trkpt lat="49.7598" lon="2.94299">
        <ele>52</ele>
        <time>2012-05-20 08:00:49 +0000</time>
      </trkpt>
      <trkpt lat="49.75993" lon="2.94293">
        <ele>48</ele>
        <time>2012-05-20 08:00:54 +0000</time>
      </trkpt>
      <trkpt lat="49.76005" lon="2.94284">
        <ele>55</ele>
        <time>2012-05-20 08:00:59 +0000</time>
      </trkpt>
      <trkpt lat="49.76027" lon="2.94273">
        <ele>65</ele>
        <time>2012-05-20 08:01:05 +0000</time>
      </trkpt>
      <trkpt lat="49.76039" lon="2.94273">
        <ele>57</ele>
        <time>2012-05-20 08:01:10 +0000</time>
      </trkpt>
      <trkpt lat="49.76053" lon="2.9427">
        <ele>61</ele>
        <time>2012-05-20 08:01:16 +0000</time>
      </trkpt>
      <trkpt lat="49.7607" lon="2.94265">
        <ele>55</ele>
        <time>2012-05-20 08:01:22 +0000</time>
      </trkpt>
      <trkpt lat="49.76089" lon="2.94265">
        <ele>51</ele>
        <time>2012-05-20 08:01:28 +0000</time>
      </trkpt>
      <trkpt lat="49.76108" lon="2.94255">
        <ele>49</ele>
        <time>2012-05-20 08:01:34 +0000</time>
      </trkpt>
      <trkpt lat="49.76115" lon="2.94254">
        <ele>47</ele>
        <time>2012-05-20 08:01:39 +0000</time>
      </trkpt>
      <trkpt lat="49.76119" lon="2.94252">
        <ele>55</ele>
        <time>2012-05-20 08:01:45 +0000</time>
      </trkpt>
      <trkpt lat="49.76124" lon="2.94254">
        <ele>56</ele>
        <time>2012-05-20 08:01:51 +0000</time>
      </trkpt>
      <trkpt lat="49.76146" lon="2.94264">
        <ele>56</ele>
        <time>2012-05-20 08:01:57 +0000</time>
      </trkpt>
      <trkpt lat="49.7615" lon="2.94283">
        <ele>54</ele>
        <time>2012-05-20 08:02:03 +0000</time>
      </trkpt>
      <trkpt lat="49.76149" lon="2.94299">
        <ele>55</ele>
        <time>2012-05-20 08:02:09 +0000</time>
      </trkpt>
      <trkpt lat="49.76153" lon="2.94325">
        <ele>55</ele>
        <time>2012-05-20 08:02:15 +0000</time>
      </trkpt>
      <trkpt lat="49.76153" lon="2.94354">
        <ele>57</ele>
        <time>2012-05-20 08:02:21 +0000</time>
      </trkpt>
      <trkpt lat="49.76155" lon="2.94392">
        <ele>56</ele>
        <time>2012-05-20 08:02:27 +0000</time>
      </trkpt>
      <trkpt lat="49.7615" lon="2.94431">
        <ele>58</ele>
        <time>2012-05-20 08:02:33 +0000</time>
      </trkpt>
      <trkpt lat="49.76138" lon="2.94471">
        <ele>55</ele>
        <time>2012-05-20 08:02:39 +0000</time>
      </trkpt>
      <trkpt lat="49.76119" lon="2.94509">
        <ele>53</ele>
        <time>2012-05-20 08:02:45 +0000</time>
      </trkpt>
      <trkpt lat="49.76095" lon="2.9454">
        <ele>54</ele>
        <time>2012-05-20 08:02:51 +0000</time>
      </trkpt>
      <trkpt lat="49.76093" lon="2.94553">
        <ele>59</ele>
        <time>2012-05-20 08:02:57 +0000</time>
      </trkpt>
      <trkpt lat="49.76099" lon="2.94588">
        <ele>53</ele>
        <time>2012-05-20 08:03:03 +0000</time>
      </trkpt>
      <trkpt lat="49.76094" lon="2.94628">
        <ele>58</ele>
        <time>2012-05-20 08:03:09 +0000</time>
      </trkpt>
      <trkpt lat="49.76105" lon="2.94649">
        <ele>49</ele>
        <time>2012-05-20 08:03:15 +0000</time>
      </trkpt>
      <trkpt lat="49.76118" lon="2.94669">
        <ele>49</ele>
        <time>2012-05-20 08:03:21 +0000</time>
      </trkpt>
      <trkpt lat="49.76133" lon="2.94684">
        <ele>50</ele>
        <time>2012-05-20 08:03:27 +0000</time>
      </trkpt>
      <trkpt lat="49.76139" lon="2.94693">
        <ele>51</ele>
        <time>2012-05-20 08:03:33 +0000</time>
      </trkpt>
      <trkpt lat="49.76166" lon="2.94683">
        <ele>49</ele>
        <time>2012-05-20 08:03:39 +0000</time>
      </trkpt>
      <trkpt lat="49.76204" lon="2.94644">
        <ele>53</ele>
        <time>2012-05-20 08:03:45 +0000</time>
      </trkpt>
      <trkpt lat="49.76204" lon="2.94642">
        <ele>52</ele>
        <time>2012-05-20 08:03:51 +0000</time>
      </trkpt>
      <trkpt lat="49.76207" lon="2.94648">
        <ele>60</ele>
        <time>2012-05-20 08:03:57 +0000</time>
      </trkpt>
      <trkpt lat="49.7621" lon="2.94656">
        <ele>66</ele>
        <time>2012-05-20 08:04:02 +0000</time>
      </trkpt>
      <trkpt lat="49.76211" lon="2.94658">
        <ele>55</ele>
        <time>2012-05-20 08:04:08 +0000</time>
      </trkpt>
      <trkpt lat="49.76215" lon="2.94668">
        <ele>59</ele>
        <time>2012-05-20 08:04:13 +0000</time>
      </trkpt>
      <trkpt lat="49.76236" lon="2.94666">
        <ele>60</ele>
        <time>2012-05-20 08:04:19 +0000</time>
      </trkpt>
      <trkpt lat="49.7626" lon="2.94655">
        <ele>57</ele>
        <time>2012-05-20 08:04:25 +0000</time>
      </trkpt>
      <trkpt lat="49.76279" lon="2.94639">
        <ele>56</ele>
        <time>2012-05-20 08:04:31 +0000</time>
      </trkpt>
      <trkpt lat="49.76301" lon="2.94616">
        <ele>53</ele>
        <time>2012-05-20 08:04:37 +0000</time>
      </trkpt>
      <trkpt lat="49.76325" lon="2.94589">
        <ele>57</ele>
        <time>2012-05-20 08:04:43 +0000</time>
      </trkpt>
      <trkpt lat="49.76346" lon="2.94566">
        <ele>55</ele>
        <time>2012-05-20 08:04:49 +0000</time>
      </trkpt>
      <trkpt lat="49.76371" lon="2.94544">
        <ele>53</ele>
        <time>2012-05-20 08:04:55 +0000</time>
      </trkpt>
      <trkpt lat="49.76397" lon="2.94515">
        <ele>56</ele>
        <time>2012-05-20 08:05:01 +0000</time>
      </trkpt>
      <trkpt lat="49.76422" lon="2.94484">
        <ele>52</ele>
        <time>2012-05-20 08:05:07 +0000</time>
      </trkpt>
      <trkpt lat="49.76443" lon="2.94449">
        <ele>51</ele>
        <time>2012-05-20 08:05:13 +0000</time>
      </trkpt>
      <trkpt lat="49.76469" lon="2.94419">
        <ele>52</ele>
        <time>2012-05-20 08:05:19 +0000</time>
      </trkpt>
      <trkpt lat="49.76488" lon="2.94398">
        <ele>53</ele>
        <time>2012-05-20 08:05:25 +0000</time>
      </trkpt>
      <trkpt lat="49.76516" lon="2.94381">
        <ele>52</ele>
        <time>2012-05-20 08:05:31 +0000</time>
      </trkpt>
      <trkpt lat="49.7654" lon="2.94374">
        <ele>56</ele>
        <time>2012-05-20 08:05:36 +0000</time>
      </trkpt>
      <trkpt lat="49.76566" lon="2.94377">
        <ele>52</ele>
        <time>2012-05-20 08:05:42 +0000</time>
      </trkpt>
      <trkpt lat="49.7659" lon="2.94379">
        <ele>53</ele>
        <time>2012-05-20 08:05:47 +0000</time>
      </trkpt>
      <trkpt lat="49.7662" lon="2.94381">
        <ele>57</ele>
        <time>2012-05-20 08:05:53 +0000</time>
      </trkpt>
      <trkpt lat="49.76646" lon="2.94385">
        <ele>52</ele>
        <time>2012-05-20 08:05:59 +0000</time>
      </trkpt>
      <trkpt lat="49.76664" lon="2.94389">
        <ele>48</ele>
        <time>2012-05-20 08:06:04 +0000</time>
      </trkpt>
      <trkpt lat="49.76689" lon="2.94396">
        <ele>53</ele>
        <time>2012-05-20 08:06:10 +0000</time>
      </trkpt>
      <trkpt lat="49.76709" lon="2.94407">
        <ele>48</ele>
        <time>2012-05-20 08:06:16 +0000</time>
      </trkpt>
      <trkpt lat="49.76725" lon="2.94419">
        <ele>53</ele>
        <time>2012-05-20 08:06:21 +0000</time>
      </trkpt>
      <trkpt lat="49.76743" lon="2.94432">
        <ele>50</ele>
        <time>2012-05-20 08:06:27 +0000</time>
      </trkpt>
      <trkpt lat="49.76762" lon="2.94441">
        <ele>51</ele>
        <time>2012-05-20 08:06:33 +0000</time>
      </trkpt>
      <trkpt lat="49.76784" lon="2.94453">
        <ele>45</ele>
        <time>2012-05-20 08:06:39 +0000</time>
      </trkpt>
      <trkpt lat="49.76804" lon="2.94463">
        <ele>48</ele>
        <time>2012-05-20 08:06:45 +0000</time>
      </trkpt>
      <trkpt lat="49.76826" lon="2.94476">
        <ele>46</ele>
        <time>2012-05-20 08:06:51 +0000</time>
      </trkpt>
      <trkpt lat="49.76852" lon="2.94489">
        <ele>51</ele>
        <time>2012-05-20 08:06:57 +0000</time>
      </trkpt>
      <trkpt lat="49.76875" lon="2.94504">
        <ele>53</ele>
        <time>2012-05-20 08:07:03 +0000</time>
      </trkpt>
      <trkpt lat="49.76898" lon="2.94521">
        <ele>49</ele>
        <time>2012-05-20 08:07:09 +0000</time>
      </trkpt>
      <trkpt lat="49.76919" lon="2.9454">
        <ele>50</ele>
        <time>2012-05-20 08:07:15 +0000</time>
      </trkpt>
      <trkpt lat="49.76941" lon="2.94557">
        <ele>50</ele>
        <time>2012-05-20 08:07:21 +0000</time>
      </trkpt>
      <trkpt lat="49.76967" lon="2.94577">
        <ele>52</ele>
        <time>2012-05-20 08:07:27 +0000</time>
      </trkpt>
      <trkpt lat="49.76988" lon="2.94596">
        <ele>53</ele>
        <time>2012-05-20 08:07:33 +0000</time>
      </trkpt>
      <trkpt lat="49.77008" lon="2.94611">
        <ele>52</ele>
        <time>2012-05-20 08:07:39 +0000</time>
      </trkpt>
      <trkpt lat="49.77029" lon="2.94623">
        <ele>50</ele>
        <time>2012-05-20 08:07:45 +0000</time>
      </trkpt>
      <trkpt lat="49.7705" lon="2.94633">
        <ele>51</ele>
        <time>2012-05-20 08:07:51 +0000</time>
      </trkpt>
      <trkpt lat="49.77074" lon="2.9464">
        <ele>50</ele>
        <time>2012-05-20 08:07:57 +0000</time>
      </trkpt>
      <trkpt lat="49.77098" lon="2.94647">
        <ele>52</ele>
        <time>2012-05-20 08:08:03 +0000</time>
      </trkpt>
      <trkpt lat="49.7712" lon="2.94653">
        <ele>49</ele>
        <time>2012-05-20 08:08:09 +0000</time>
      </trkpt>
      <trkpt lat="49.77145" lon="2.94671">
        <ele>53</ele>
        <time>2012-05-20 08:08:15 +0000</time>
      </trkpt>
      <trkpt lat="49.77165" lon="2.94691">
        <ele>51</ele>
        <time>2012-05-20 08:08:21 +0000</time>
      </trkpt>
      <trkpt lat="49.77178" lon="2.9471">
        <ele>51</ele>
        <time>2012-05-20 08:08:27 +0000</time>
      </trkpt>
      <trkpt lat="49.77195" lon="2.94725">
        <ele>51</ele>
        <time>2012-05-20 08:08:33 +0000</time>
      </trkpt>
      <trkpt lat="49.77216" lon="2.94742">
        <ele>50</ele>
        <time>2012-05-20 08:08:39 +0000</time>
      </trkpt>
      <trkpt lat="49.77237" lon="2.94759">
        <ele>49</ele>
        <time>2012-05-20 08:08:45 +0000</time>
      </trkpt>
      <trkpt lat="49.77256" lon="2.94757">
        <ele>55</ele>
        <time>2012-05-20 08:08:51 +0000</time>
      </trkpt>
      <trkpt lat="49.77248" lon="2.94729">
        <ele>58</ele>
        <time>2012-05-20 08:08:57 +0000</time>
      </trkpt>
      <trkpt lat="49.77238" lon="2.94679">
        <ele>56</ele>
        <time>2012-05-20 08:09:03 +0000</time>
      </trkpt>
      <trkpt lat="49.77223" lon="2.94628">
        <ele>55</ele>
        <time>2012-05-20 08:09:09 +0000</time>
      </trkpt>
      <trkpt lat="49.77195" lon="2.94585">
        <ele>58</ele>
        <time>2012-05-20 08:09:15 +0000</time>
      </trkpt>
      <trkpt lat="49.77176" lon="2.94539">
        <ele>56</ele>
        <time>2012-05-20 08:09:21 +0000</time>
      </trkpt>
      <trkpt lat="49.77162" lon="2.94489">
        <ele>48</ele>
        <time>2012-05-20 08:09:27 +0000</time>
      </trkpt>
      <trkpt lat="49.77148" lon="2.94433">
        <ele>55</ele>
        <time>2012-05-20 08:09:33 +0000</time>
      </trkpt>
      <trkpt lat="49.77137" lon="2.94382">
        <ele>55</ele>
        <time>2012-05-20 08:09:39 +0000</time>
      </trkpt>
      <trkpt lat="49.77136" lon="2.94334">
        <ele>53</ele>
        <time>2012-05-20 08:09:45 +0000</time>
      </trkpt>
      <trkpt lat="49.77144" lon="2.94293">
        <ele>57</ele>
        <time>2012-05-20 08:09:51 +0000</time>
      </trkpt>
      <trkpt lat="49.77151" lon="2.94246">
        <ele>57</ele>
        <time>2012-05-20 08:09:57 +0000</time>
      </trkpt>
      <trkpt lat="49.77164" lon="2.94191">
        <ele>53</ele>
        <time>2012-05-20 08:10:03 +0000</time>
      </trkpt>
      <trkpt lat="49.77178" lon="2.94138">
        <ele>55</ele>
        <time>2012-05-20 08:10:09 +0000</time>
      </trkpt>
      <trkpt lat="49.77193" lon="2.94091">
        <ele>49</ele>
        <time>2012-05-20 08:10:15 +0000</time>
      </trkpt>
      <trkpt lat="49.77202" lon="2.94052">
        <ele>56</ele>
        <time>2012-05-20 08:10:21 +0000</time>
      </trkpt>
      <trkpt lat="49.77214" lon="2.94022">
        <ele>56</ele>
        <time>2012-05-20 08:10:27 +0000</time>
      </trkpt>
      <trkpt lat="49.77226" lon="2.94004">
        <ele>56</ele>
        <time>2012-05-20 08:10:32 +0000</time>
      </trkpt>
      <trkpt lat="49.77239" lon="2.93973">
        <ele>58</ele>
        <time>2012-05-20 08:10:38 +0000</time>
      </trkpt>
      <trkpt lat="49.77248" lon="2.93949">
        <ele>59</ele>
        <time>2012-05-20 08:10:43 +0000</time>
      </trkpt>
      <trkpt lat="49.77262" lon="2.93922">
        <ele>59</ele>
        <time>2012-05-20 08:10:49 +0000</time>
      </trkpt>
      <trkpt lat="49.77274" lon="2.93899">
        <ele>62</ele>
        <time>2012-05-20 08:10:55 +0000</time>
      </trkpt>
      <trkpt lat="49.77283" lon="2.93884">
        <ele>59</ele>
        <time>2012-05-20 08:11:00 +0000</time>
      </trkpt>
      <trkpt lat="49.77295" lon="2.93862">
        <ele>62</ele>
        <time>2012-05-20 08:11:05 +0000</time>
      </trkpt>
      <trkpt lat="49.77304" lon="2.93836">
        <ele>67</ele>
        <time>2012-05-20 08:11:11 +0000</time>
      </trkpt>
      <trkpt lat="49.7731" lon="2.93809">
        <ele>63</ele>
        <time>2012-05-20 08:11:16 +0000</time>
      </trkpt>
      <trkpt lat="49.77317" lon="2.93778">
        <ele>63</ele>
        <time>2012-05-20 08:11:22 +0000</time>
      </trkpt>
      <trkpt lat="49.77327" lon="2.93749">
        <ele>68</ele>
        <time>2012-05-20 08:11:28 +0000</time>
      </trkpt>
      <trkpt lat="49.77334" lon="2.93733">
        <ele>67</ele>
        <time>2012-05-20 08:11:34 +0000</time>
      </trkpt>
      <trkpt lat="49.77345" lon="2.93705">
        <ele>65</ele>
        <time>2012-05-20 08:11:40 +0000</time>
      </trkpt>
      <trkpt lat="49.77356" lon="2.93679">
        <ele>70</ele>
        <time>2012-05-20 08:11:46 +0000</time>
      </trkpt>
      <trkpt lat="49.77368" lon="2.93655">
        <ele>74</ele>
        <time>2012-05-20 08:11:51 +0000</time>
      </trkpt>
      <trkpt lat="49.77382" lon="2.93626">
        <ele>85</ele>
        <time>2012-05-20 08:11:57 +0000</time>
      </trkpt>
      <trkpt lat="49.77394" lon="2.93599">
        <ele>77</ele>
        <time>2012-05-20 08:12:03 +0000</time>
      </trkpt>
      <trkpt lat="49.77405" lon="2.93567">
        <ele>73</ele>
        <time>2012-05-20 08:12:09 +0000</time>
      </trkpt>
      <trkpt lat="49.77416" lon="2.93538">
        <ele>74</ele>
        <time>2012-05-20 08:12:15 +0000</time>
      </trkpt>
      <trkpt lat="49.7743" lon="2.93502">
        <ele>69</ele>
        <time>2012-05-20 08:12:21 +0000</time>
      </trkpt>
      <trkpt lat="49.77446" lon="2.93469">
        <ele>77</ele>
        <time>2012-05-20 08:12:27 +0000</time>
      </trkpt>
      <trkpt lat="49.77458" lon="2.93441">
        <ele>79</ele>
        <time>2012-05-20 08:12:32 +0000</time>
      </trkpt>
      <trkpt lat="49.7747" lon="2.93416">
        <ele>67</ele>
        <time>2012-05-20 08:12:37 +0000</time>
      </trkpt>
      <trkpt lat="49.7748" lon="2.93389">
        <ele>74</ele>
        <time>2012-05-20 08:12:43 +0000</time>
      </trkpt>
      <trkpt lat="49.7749" lon="2.93362">
        <ele>72</ele>
        <time>2012-05-20 08:12:48 +0000</time>
      </trkpt>
      <trkpt lat="49.77503" lon="2.93327">
        <ele>74</ele>
        <time>2012-05-20 08:12:54 +0000</time>
      </trkpt>
      <trkpt lat="49.77514" lon="2.93295">
        <ele>72</ele>
        <time>2012-05-20 08:12:59 +0000</time>
      </trkpt>
      <trkpt lat="49.77525" lon="2.93267">
        <ele>77</ele>
        <time>2012-05-20 08:13:04 +0000</time>
      </trkpt>
      <trkpt lat="49.77536" lon="2.93235">
        <ele>66</ele>
        <time>2012-05-20 08:13:10 +0000</time>
      </trkpt>
      <trkpt lat="49.77549" lon="2.93201">
        <ele>70</ele>
        <time>2012-05-20 08:13:16 +0000</time>
      </trkpt>
      <trkpt lat="49.77562" lon="2.93171">
        <ele>69</ele>
        <time>2012-05-20 08:13:22 +0000</time>
      </trkpt>
      <trkpt lat="49.77574" lon="2.93134">
        <ele>75</ele>
        <time>2012-05-20 08:13:28 +0000</time>
      </trkpt>
      <trkpt lat="49.77585" lon="2.93096">
        <ele>79</ele>
        <time>2012-05-20 08:13:34 +0000</time>
      </trkpt>
      <trkpt lat="49.77598" lon="2.93062">
        <ele>76</ele>
        <time>2012-05-20 08:13:40 +0000</time>
      </trkpt>
      <trkpt lat="49.7761" lon="2.93019">
        <ele>75</ele>
        <time>2012-05-20 08:13:46 +0000</time>
      </trkpt>
      <trkpt lat="49.77621" lon="2.92983">
        <ele>77</ele>
        <time>2012-05-20 08:13:52 +0000</time>
      </trkpt>
      <trkpt lat="49.77632" lon="2.92945">
        <ele>73</ele>
        <time>2012-05-20 08:13:58 +0000</time>
      </trkpt>
      <trkpt lat="49.77642" lon="2.92908">
        <ele>75</ele>
        <time>2012-05-20 08:14:04 +0000</time>
      </trkpt>
      <trkpt lat="49.7765" lon="2.92885">
        <ele>81</ele>
        <time>2012-05-20 08:14:09 +0000</time>
      </trkpt>
      <trkpt lat="49.77662" lon="2.92854">
        <ele>78</ele>
        <time>2012-05-20 08:14:15 +0000</time>
      </trkpt>
      <trkpt lat="49.77674" lon="2.92813">
        <ele>73</ele>
        <time>2012-05-20 08:14:21 +0000</time>
      </trkpt>
      <trkpt lat="49.77683" lon="2.92768">
        <ele>75</ele>
        <time>2012-05-20 08:14:27 +0000</time>
      </trkpt>
      <trkpt lat="49.77688" lon="2.92728">
        <ele>76</ele>
        <time>2012-05-20 08:14:33 +0000</time>
      </trkpt>
      <trkpt lat="49.77694" lon="2.92698">
        <ele>78</ele>
        <time>2012-05-20 08:14:38 +0000</time>
      </trkpt>
      <trkpt lat="49.77702" lon="2.92661">
        <ele>73</ele>
        <time>2012-05-20 08:14:44 +0000</time>
      </trkpt>
      <trkpt lat="49.77712" lon="2.92627">
        <ele>78</ele>
        <time>2012-05-20 08:14:49 +0000</time>
      </trkpt>
      <trkpt lat="49.77723" lon="2.92584">
        <ele>78</ele>
        <time>2012-05-20 08:14:55 +0000</time>
      </trkpt>
      <trkpt lat="49.77733" lon="2.92549">
        <ele>75</ele>
        <time>2012-05-20 08:15:01 +0000</time>
      </trkpt>
      <trkpt lat="49.77744" lon="2.92507">
        <ele>71</ele>
        <time>2012-05-20 08:15:07 +0000</time>
      </trkpt>
      <trkpt lat="49.77754" lon="2.92467">
        <ele>76</ele>
        <time>2012-05-20 08:15:13 +0000</time>
      </trkpt>
      <trkpt lat="49.77761" lon="2.92432">
        <ele>77</ele>
        <time>2012-05-20 08:15:18 +0000</time>
      </trkpt>
      <trkpt lat="49.77771" lon="2.92392">
        <ele>82</ele>
        <time>2012-05-20 08:15:24 +0000</time>
      </trkpt>
      <trkpt lat="49.77781" lon="2.92351">
        <ele>80</ele>
        <time>2012-05-20 08:15:30 +0000</time>
      </trkpt>
      <trkpt lat="49.77787" lon="2.92319">
        <ele>78</ele>
        <time>2012-05-20 08:15:35 +0000</time>
      </trkpt>
      <trkpt lat="49.77795" lon="2.92287">
        <ele>77</ele>
        <time>2012-05-20 08:15:40 +0000</time>
      </trkpt>
      <trkpt lat="49.77805" lon="2.92245">
        <ele>81</ele>
        <time>2012-05-20 08:15:46 +0000</time>
      </trkpt>
      <trkpt lat="49.77813" lon="2.92216">
        <ele>82</ele>
        <time>2012-05-20 08:15:51 +0000</time>
      </trkpt>
      <trkpt lat="49.77815" lon="2.92193">
        <ele>79</ele>
        <time>2012-05-20 08:15:57 +0000</time>
      </trkpt>
      <trkpt lat="49.77802" lon="2.92201">
        <ele>81</ele>
        <time>2012-05-20 08:16:03 +0000</time>
      </trkpt>
      <trkpt lat="49.77776" lon="2.92211">
        <ele>86</ele>
        <time>2012-05-20 08:16:09 +0000</time>
      </trkpt>
      <trkpt lat="49.77744" lon="2.92222">
        <ele>81</ele>
        <time>2012-05-20 08:16:15 +0000</time>
      </trkpt>
      <trkpt lat="49.77713" lon="2.92233">
        <ele>78</ele>
        <time>2012-05-20 08:16:21 +0000</time>
      </trkpt>
      <trkpt lat="49.77686" lon="2.92241">
        <ele>78</ele>
        <time>2012-05-20 08:16:26 +0000</time>
      </trkpt>
      <trkpt lat="49.77657" lon="2.92254">
        <ele>77</ele>
        <time>2012-05-20 08:16:31 +0000</time>
      </trkpt>
      <trkpt lat="49.77627" lon="2.92265">
        <ele>77</ele>
        <time>2012-05-20 08:16:36 +0000</time>
      </trkpt>
      <trkpt lat="49.77597" lon="2.92279">
        <ele>77</ele>
        <time>2012-05-20 08:16:41 +0000</time>
      </trkpt>
      <trkpt lat="49.77571" lon="2.92291">
        <ele>81</ele>
        <time>2012-05-20 08:16:46 +0000</time>
      </trkpt>
      <trkpt lat="49.77537" lon="2.92306">
        <ele>75</ele>
        <time>2012-05-20 08:16:52 +0000</time>
      </trkpt>
      <trkpt lat="49.77502" lon="2.92321">
        <ele>78</ele>
        <time>2012-05-20 08:16:58 +0000</time>
      </trkpt>
      <trkpt lat="49.77468" lon="2.92335">
        <ele>75</ele>
        <time>2012-05-20 08:17:04 +0000</time>
      </trkpt>
      <trkpt lat="49.77438" lon="2.92347">
        <ele>74</ele>
        <time>2012-05-20 08:17:09 +0000</time>
      </trkpt>
      <trkpt lat="49.77407" lon="2.92359">
        <ele>72</ele>
        <time>2012-05-20 08:17:14 +0000</time>
      </trkpt>
      <trkpt lat="49.77377" lon="2.92369">
        <ele>73</ele>
        <time>2012-05-20 08:17:19 +0000</time>
      </trkpt>
      <trkpt lat="49.77337" lon="2.92387">
        <ele>70</ele>
        <time>2012-05-20 08:17:25 +0000</time>
      </trkpt>
      <trkpt lat="49.77304" lon="2.92401">
        <ele>70</ele>
        <time>2012-05-20 08:17:30 +0000</time>
      </trkpt>
      <trkpt lat="49.77264" lon="2.92416">
        <ele>71</ele>
        <time>2012-05-20 08:17:36 +0000</time>
      </trkpt>
      <trkpt lat="49.77225" lon="2.92428">
        <ele>71</ele>
        <time>2012-05-20 08:17:42 +0000</time>
      </trkpt>
      <trkpt lat="49.77187" lon="2.92442">
        <ele>70</ele>
        <time>2012-05-20 08:17:48 +0000</time>
      </trkpt>
      <trkpt lat="49.77158" lon="2.92457">
        <ele>68</ele>
        <time>2012-05-20 08:17:53 +0000</time>
      </trkpt>
      <trkpt lat="49.77136" lon="2.92476">
        <ele>77</ele>
        <time>2012-05-20 08:17:58 +0000</time>
      </trkpt>
      <trkpt lat="49.77106" lon="2.92512">
        <ele>74</ele>
        <time>2012-05-20 08:18:04 +0000</time>
      </trkpt>
      <trkpt lat="49.77082" lon="2.92551">
        <ele>71</ele>
        <time>2012-05-20 08:18:10 +0000</time>
      </trkpt>
      <trkpt lat="49.7706" lon="2.92596">
        <ele>68</ele>
        <time>2012-05-20 08:18:16 +0000</time>
      </trkpt>
      <trkpt lat="49.77036" lon="2.92636">
        <ele>67</ele>
        <time>2012-05-20 08:18:22 +0000</time>
      </trkpt>
      <trkpt lat="49.77015" lon="2.92667">
        <ele>71</ele>
        <time>2012-05-20 08:18:28 +0000</time>
      </trkpt>
      <trkpt lat="49.76989" lon="2.92702">
        <ele>66</ele>
        <time>2012-05-20 08:18:34 +0000</time>
      </trkpt>
      <trkpt lat="49.76962" lon="2.92743">
        <ele>66</ele>
        <time>2012-05-20 08:18:39 +0000</time>
      </trkpt>
      <trkpt lat="49.76936" lon="2.92778">
        <ele>71</ele>
        <time>2012-05-20 08:18:44 +0000</time>
      </trkpt>
      <trkpt lat="49.76917" lon="2.92804">
        <ele>70</ele>
        <time>2012-05-20 08:18:49 +0000</time>
      </trkpt>
      <trkpt lat="49.7689" lon="2.92838">
        <ele>68</ele>
        <time>2012-05-20 08:18:55 +0000</time>
      </trkpt>
      <trkpt lat="49.76867" lon="2.92867">
        <ele>64</ele>
        <time>2012-05-20 08:19:01 +0000</time>
      </trkpt>
      <trkpt lat="49.76849" lon="2.9289">
        <ele>67</ele>
        <time>2012-05-20 08:19:06 +0000</time>
      </trkpt>
      <trkpt lat="49.76826" lon="2.92922">
        <ele>72</ele>
        <time>2012-05-20 08:19:12 +0000</time>
      </trkpt>
      <trkpt lat="49.76808" lon="2.92942">
        <ele>75</ele>
        <time>2012-05-20 08:19:18 +0000</time>
      </trkpt>
      <trkpt lat="49.76794" lon="2.92956">
        <ele>73</ele>
        <time>2012-05-20 08:19:23 +0000</time>
      </trkpt>
      <trkpt lat="49.76782" lon="2.92971">
        <ele>74</ele>
        <time>2012-05-20 08:19:28 +0000</time>
      </trkpt>
      <trkpt lat="49.76765" lon="2.92972">
        <ele>72</ele>
        <time>2012-05-20 08:19:34 +0000</time>
      </trkpt>
      <trkpt lat="49.76756" lon="2.92943">
        <ele>70</ele>
        <time>2012-05-20 08:19:40 +0000</time>
      </trkpt>
      <trkpt lat="49.76742" lon="2.92908">
        <ele>68</ele>
        <time>2012-05-20 08:19:45 +0000</time>
      </trkpt>
      <trkpt lat="49.76724" lon="2.92865">
        <ele>72</ele>
        <time>2012-05-20 08:19:51 +0000</time>
      </trkpt>
      <trkpt lat="49.76706" lon="2.92818">
        <ele>70</ele>
        <time>2012-05-20 08:19:57 +0000</time>
      </trkpt>
      <trkpt lat="49.76687" lon="2.92773">
        <ele>70</ele>
        <time>2012-05-20 08:20:03 +0000</time>
      </trkpt>
      <trkpt lat="49.76669" lon="2.92728">
        <ele>73</ele>
        <time>2012-05-20 08:20:09 +0000</time>
      </trkpt>
      <trkpt lat="49.76655" lon="2.92695">
        <ele>68</ele>
        <time>2012-05-20 08:20:14 +0000</time>
      </trkpt>
      <trkpt lat="49.76643" lon="2.92664">
        <ele>72</ele>
        <time>2012-05-20 08:20:19 +0000</time>
      </trkpt>
      <trkpt lat="49.76627" lon="2.92626">
        <ele>70</ele>
        <time>2012-05-20 08:20:25 +0000</time>
      </trkpt>
      <trkpt lat="49.76612" lon="2.92588">
        <ele>72</ele>
        <time>2012-05-20 08:20:30 +0000</time>
      </trkpt>
      <trkpt lat="49.76594" lon="2.92549">
        <ele>73</ele>
        <time>2012-05-20 08:20:36 +0000</time>
      </trkpt>
      <trkpt lat="49.76576" lon="2.92508">
        <ele>75</ele>
        <time>2012-05-20 08:20:42 +0000</time>
      </trkpt>
      <trkpt lat="49.7656" lon="2.92469">
        <ele>74</ele>
        <time>2012-05-20 08:20:47 +0000</time>
      </trkpt>
      <trkpt lat="49.76546" lon="2.92434">
        <ele>69</ele>
        <time>2012-05-20 08:20:52 +0000</time>
      </trkpt>
      <trkpt lat="49.76527" lon="2.9239">
        <ele>66</ele>
        <time>2012-05-20 08:20:58 +0000</time>
      </trkpt>
      <trkpt lat="49.76505" lon="2.92339">
        <ele>74</ele>
        <time>2012-05-20 08:21:04 +0000</time>
      </trkpt>
      <trkpt lat="49.76497" lon="2.92311">
        <ele>72</ele>
        <time>2012-05-20 08:21:10 +0000</time>
      </trkpt>
      <trkpt lat="49.76489" lon="2.92271">
        <ele>72</ele>
        <time>2012-05-20 08:21:16 +0000</time>
      </trkpt>
      <trkpt lat="49.76467" lon="2.92248">
        <ele>76</ele>
        <time>2012-05-20 08:21:22 +0000</time>
      </trkpt>
      <trkpt lat="49.76449" lon="2.92215">
        <ele>76</ele>
        <time>2012-05-20 08:21:28 +0000</time>
      </trkpt>
      <trkpt lat="49.76435" lon="2.92183">
        <ele>73</ele>
        <time>2012-05-20 08:21:33 +0000</time>
      </trkpt>
      <trkpt lat="49.76418" lon="2.92145">
        <ele>71</ele>
        <time>2012-05-20 08:21:39 +0000</time>
      </trkpt>
      <trkpt lat="49.76402" lon="2.9211">
        <ele>74</ele>
        <time>2012-05-20 08:21:44 +0000</time>
      </trkpt>
      <trkpt lat="49.76384" lon="2.92069">
        <ele>73</ele>
        <time>2012-05-20 08:21:50 +0000</time>
      </trkpt>
      <trkpt lat="49.76368" lon="2.92032">
        <ele>72</ele>
        <time>2012-05-20 08:21:55 +0000</time>
      </trkpt>
      <trkpt lat="49.76348" lon="2.91986">
        <ele>75</ele>
        <time>2012-05-20 08:22:01 +0000</time>
      </trkpt>
      <trkpt lat="49.7633" lon="2.91946">
        <ele>74</ele>
        <time>2012-05-20 08:22:07 +0000</time>
      </trkpt>
      <trkpt lat="49.76308" lon="2.91907">
        <ele>76</ele>
        <time>2012-05-20 08:22:13 +0000</time>
      </trkpt>
      <trkpt lat="49.76289" lon="2.91881">
        <ele>80</ele>
        <time>2012-05-20 08:22:18 +0000</time>
      </trkpt>
      <trkpt lat="49.76268" lon="2.91852">
        <ele>84</ele>
        <time>2012-05-20 08:22:23 +0000</time>
      </trkpt>
      <trkpt lat="49.76247" lon="2.91825">
        <ele>77</ele>
        <time>2012-05-20 08:22:28 +0000</time>
      </trkpt>
      <trkpt lat="49.76216" lon="2.9179">
        <ele>74</ele>
        <time>2012-05-20 08:22:34 +0000</time>
      </trkpt>
      <trkpt lat="49.76188" lon="2.91759">
        <ele>76</ele>
        <time>2012-05-20 08:22:40 +0000</time>
      </trkpt>
      <trkpt lat="49.76159" lon="2.91729">
        <ele>73</ele>
        <time>2012-05-20 08:22:46 +0000</time>
      </trkpt>
      <trkpt lat="49.76135" lon="2.91703">
        <ele>74</ele>
        <time>2012-05-20 08:22:51 +0000</time>
      </trkpt>
      <trkpt lat="49.7611" lon="2.91678">
        <ele>70</ele>
        <time>2012-05-20 08:22:56 +0000</time>
      </trkpt>
      <trkpt lat="49.76088" lon="2.91654">
        <ele>67</ele>
        <time>2012-05-20 08:23:01 +0000</time>
      </trkpt>
      <trkpt lat="49.76054" lon="2.91625">
        <ele>72</ele>
        <time>2012-05-20 08:23:07 +0000</time>
      </trkpt>
      <trkpt lat="49.76027" lon="2.91599">
        <ele>74</ele>
        <time>2012-05-20 08:23:12 +0000</time>
      </trkpt>
      <trkpt lat="49.76" lon="2.91574">
        <ele>70</ele>
        <time>2012-05-20 08:23:17 +0000</time>
      </trkpt>
      <trkpt lat="49.75968" lon="2.91545">
        <ele>69</ele>
        <time>2012-05-20 08:23:23 +0000</time>
      </trkpt>
      <trkpt lat="49.75946" lon="2.91526">
        <ele>66</ele>
        <time>2012-05-20 08:23:28 +0000</time>
      </trkpt>
      <trkpt lat="49.7592" lon="2.91504">
        <ele>75</ele>
        <time>2012-05-20 08:23:34 +0000</time>
      </trkpt>
      <trkpt lat="49.75895" lon="2.91479">
        <ele>80</ele>
        <time>2012-05-20 08:23:40 +0000</time>
      </trkpt>
      <trkpt lat="49.75873" lon="2.91449">
        <ele>73</ele>
        <time>2012-05-20 08:23:46 +0000</time>
      </trkpt>
      <trkpt lat="49.75858" lon="2.91433">
        <ele>80</ele>
        <time>2012-05-20 08:23:50 +0000</time>
      </trkpt>
      <trkpt lat="49.75826" lon="2.91405">
        <ele>82</ele>
        <time>2012-05-20 08:23:57 +0000</time>
      </trkpt>
      <trkpt lat="49.75798" lon="2.91381">
        <ele>79</ele>
        <time>2012-05-20 08:24:03 +0000</time>
      </trkpt>
      <trkpt lat="49.7577" lon="2.91355">
        <ele>79</ele>
        <time>2012-05-20 08:24:09 +0000</time>
      </trkpt>
      <trkpt lat="49.75745" lon="2.91331">
        <ele>75</ele>
        <time>2012-05-20 08:24:14 +0000</time>
      </trkpt>
      <trkpt lat="49.75723" lon="2.91312">
        <ele>70</ele>
        <time>2012-05-20 08:24:19 +0000</time>
      </trkpt>
      <trkpt lat="49.75708" lon="2.91292">
        <ele>72</ele>
        <time>2012-05-20 08:24:25 +0000</time>
      </trkpt>
      <trkpt lat="49.75721" lon="2.91269">
        <ele>71</ele>
        <time>2012-05-20 08:24:31 +0000</time>
      </trkpt>
      <trkpt lat="49.75739" lon="2.91252">
        <ele>76</ele>
        <time>2012-05-20 08:24:37 +0000</time>
      </trkpt>
      <trkpt lat="49.75759" lon="2.9123">
        <ele>71</ele>
        <time>2012-05-20 08:24:43 +0000</time>
      </trkpt>
      <trkpt lat="49.75776" lon="2.91203">
        <ele>74</ele>
        <time>2012-05-20 08:24:49 +0000</time>
      </trkpt>
      <trkpt lat="49.75793" lon="2.91175">
        <ele>78</ele>
        <time>2012-05-20 08:24:55 +0000</time>
      </trkpt>
      <trkpt lat="49.75805" lon="2.91152">
        <ele>79</ele>
        <time>2012-05-20 08:25:00 +0000</time>
      </trkpt>
      <trkpt lat="49.75813" lon="2.91133">
        <ele>80</ele>
        <time>2012-05-20 08:25:06 +0000</time>
      </trkpt>
      <trkpt lat="49.75823" lon="2.91102">
        <ele>75</ele>
        <time>2012-05-20 08:25:12 +0000</time>
      </trkpt>
      <trkpt lat="49.75822" lon="2.91076">
        <ele>74</ele>
        <time>2012-05-20 08:25:18 +0000</time>
      </trkpt>
      <trkpt lat="49.75799" lon="2.91054">
        <ele>76</ele>
        <time>2012-05-20 08:25:24 +0000</time>
      </trkpt>
      <trkpt lat="49.75779" lon="2.91034">
        <ele>77</ele>
        <time>2012-05-20 08:25:29 +0000</time>
      </trkpt>
      <trkpt lat="49.75761" lon="2.91022">
        <ele>76</ele>
        <time>2012-05-20 08:25:34 +0000</time>
      </trkpt>
      <trkpt lat="49.75756" lon="2.91011">
        <ele>74</ele>
        <time>2012-05-20 08:25:40 +0000</time>
      </trkpt>
      <trkpt lat="49.75755" lon="2.91004">
        <ele>79</ele>
        <time>2012-05-20 08:25:46 +0000</time>
      </trkpt>
      <trkpt lat="49.75752" lon="2.90992">
        <ele>71</ele>
        <time>2012-05-20 08:25:51 +0000</time>
      </trkpt>
      <trkpt lat="49.75751" lon="2.9099">
        <ele>71</ele>
        <time>2012-05-20 08:25:57 +0000</time>
      </trkpt>
      <trkpt lat="49.75751" lon="2.9099">
        <ele>71</ele>
        <time>2012-05-20 08:26:02 +0000</time>
      </trkpt>
      <trkpt lat="49.75751" lon="2.9099">
        <ele>71</ele>
        <time>2012-05-20 08:26:08 +0000</time>
      </trkpt>
      <trkpt lat="49.75751" lon="2.9099">
        <ele>71</ele>
        <time>2012-05-20 08:26:09 +0000</time>
      </trkpt>
    </trkseg>
  </trk>
</gpx>